<?xml version="1.0" encoding="UTF-8"?>
<gpx xmlns="http://www.topografix.com/GPX/1/1" xmlns:gpsies="http://www.gpsies.com/GPX/1/0" creator="GPSies http://www.gpsies.com - Sortie3AutourDeSault" version="1.1" xmlns:xsi="http://www.w3.org/2001/XMLSchema-instance" xsi:schemaLocation="http://www.topografix.com/GPX/1/1 http://www.topografix.com/GPX/1/1/gpx.xsd http://www.gpsies.com/GPX/1/0 http://www.gpsies.com/gpsies.xsd">
  <metadata>
    <name>Sortie3AutourDeSault</name>
    <link href="http://www.gpsies.com/map.do?fileId=ukzqomcutwhtpivx">
      <text>Sortie3AutourDeSault on GPSies.com</text>
    </link>
    <time>2011-01-22T11:09:53Z</time>
    <extensions>
      <gpsies:property>round trip</gpsies:property>
      <gpsies:trackLengthMeter>54074.1150152965</gpsies:trackLengthMeter>
      <gpsies:totalAscentMeter>801.0</gpsies:totalAscentMeter>
      <gpsies:totalDescentMeter>810.0</gpsies:totalDescentMeter>
      <gpsies:minHeightMeter>577.0</gpsies:minHeightMeter>
      <gpsies:maxHeightMeter>1012.0</gpsies:maxHeightMeter>
    </extensions>
  </metadata>
  <trk>
    <name>Sortie3AutourDeSault on GPSies.com</name>
    <link href="http://www.gpsies.com/map.do?fileId=ukzqomcutwhtpivx" />
    <trkseg>
      <trkpt lat="44.09202360" lon="5.408878320">
        <ele>745.00000</ele>
        <time>2011-01-22T11:09:53Z</time>
      </trkpt>
      <trkpt lat="44.09209000" lon="5.408930000">
        <ele>749.00000</ele>
        <time>2011-01-22T11:09:56Z</time>
      </trkpt>
      <trkpt lat="44.09228000" lon="5.408550000">
        <ele>740.00000</ele>
        <time>2011-01-22T11:10:09Z</time>
      </trkpt>
      <trkpt lat="44.09239000" lon="5.408500000">
        <ele>740.00000</ele>
        <time>2011-01-22T11:10:14Z</time>
      </trkpt>
      <trkpt lat="44.09362000" lon="5.408410000">
        <ele>739.00000</ele>
        <time>2011-01-22T11:11:03Z</time>
      </trkpt>
      <trkpt lat="44.09426000" lon="5.408440000">
        <ele>738.00000</ele>
        <time>2011-01-22T11:11:29Z</time>
      </trkpt>
      <trkpt lat="44.09616000" lon="5.408670000">
        <ele>735.00000</ele>
        <time>2011-01-22T11:12:45Z</time>
      </trkpt>
      <trkpt lat="44.09688000" lon="5.408880000">
        <ele>750.00000</ele>
        <time>2011-01-22T11:13:14Z</time>
      </trkpt>
      <trkpt lat="44.09730000" lon="5.409240000">
        <ele>743.00000</ele>
        <time>2011-01-22T11:13:34Z</time>
      </trkpt>
      <trkpt lat="44.09751000" lon="5.409360000">
        <ele>743.00000</ele>
        <time>2011-01-22T11:13:43Z</time>
      </trkpt>
      <trkpt lat="44.09800000" lon="5.409500000">
        <ele>730.00000</ele>
        <time>2011-01-22T11:14:03Z</time>
      </trkpt>
      <trkpt lat="44.09857000" lon="5.410000000">
        <ele>758.00000</ele>
        <time>2011-01-22T11:14:30Z</time>
      </trkpt>
      <trkpt lat="44.09993000" lon="5.410680000">
        <ele>758.00000</ele>
        <time>2011-01-22T11:15:28Z</time>
      </trkpt>
      <trkpt lat="44.10158000" lon="5.411760000">
        <ele>758.00000</ele>
        <time>2011-01-22T11:16:41Z</time>
      </trkpt>
      <trkpt lat="44.10241000" lon="5.412160000">
        <ele>771.00000</ele>
        <time>2011-01-22T11:17:16Z</time>
      </trkpt>
      <trkpt lat="44.10499000" lon="5.413070000">
        <ele>772.00000</ele>
        <time>2011-01-22T11:19:03Z</time>
      </trkpt>
      <trkpt lat="44.10626000" lon="5.413590000">
        <ele>765.00000</ele>
        <time>2011-01-22T11:19:56Z</time>
      </trkpt>
      <trkpt lat="44.10735000" lon="5.414350000">
        <ele>771.00000</ele>
        <time>2011-01-22T11:20:44Z</time>
      </trkpt>
      <trkpt lat="44.10761000" lon="5.414460000">
        <ele>771.00000</ele>
        <time>2011-01-22T11:20:55Z</time>
      </trkpt>
      <trkpt lat="44.10852000" lon="5.414540000">
        <ele>758.00000</ele>
        <time>2011-01-22T11:21:32Z</time>
      </trkpt>
      <trkpt lat="44.10972000" lon="5.414990000">
        <ele>769.00000</ele>
        <time>2011-01-22T11:22:22Z</time>
      </trkpt>
      <trkpt lat="44.11041000" lon="5.415330000">
        <ele>769.00000</ele>
        <time>2011-01-22T11:22:51Z</time>
      </trkpt>
      <trkpt lat="44.11103000" lon="5.415380000">
        <ele>759.00000</ele>
        <time>2011-01-22T11:23:16Z</time>
      </trkpt>
      <trkpt lat="44.11159000" lon="5.415600000">
        <ele>771.00000</ele>
        <time>2011-01-22T11:23:39Z</time>
      </trkpt>
      <trkpt lat="44.11278000" lon="5.416200000">
        <ele>768.00000</ele>
        <time>2011-01-22T11:24:30Z</time>
      </trkpt>
      <trkpt lat="44.11370000" lon="5.416810000">
        <ele>778.00000</ele>
        <time>2011-01-22T11:25:10Z</time>
      </trkpt>
      <trkpt lat="44.11450000" lon="5.417530000">
        <ele>782.00000</ele>
        <time>2011-01-22T11:25:49Z</time>
      </trkpt>
      <trkpt lat="44.11575000" lon="5.418900000">
        <ele>781.00000</ele>
        <time>2011-01-22T11:26:52Z</time>
      </trkpt>
      <trkpt lat="44.11592000" lon="5.419190000">
        <ele>781.00000</ele>
        <time>2011-01-22T11:27:03Z</time>
      </trkpt>
      <trkpt lat="44.11604000" lon="5.419580000">
        <ele>781.00000</ele>
        <time>2011-01-22T11:27:15Z</time>
      </trkpt>
      <trkpt lat="44.11614000" lon="5.419740000">
        <ele>793.00000</ele>
        <time>2011-01-22T11:27:21Z</time>
      </trkpt>
      <trkpt lat="44.11668000" lon="5.420200000">
        <ele>777.00000</ele>
        <time>2011-01-22T11:27:47Z</time>
      </trkpt>
      <trkpt lat="44.11699000" lon="5.420560000">
        <ele>789.00000</ele>
        <time>2011-01-22T11:28:03Z</time>
      </trkpt>
      <trkpt lat="44.11727000" lon="5.421080000">
        <ele>771.00000</ele>
        <time>2011-01-22T11:28:21Z</time>
      </trkpt>
      <trkpt lat="44.11775000" lon="5.421320000">
        <ele>782.00000</ele>
        <time>2011-01-22T11:28:42Z</time>
      </trkpt>
      <trkpt lat="44.11889000" lon="5.422270000">
        <ele>784.00000</ele>
        <time>2011-01-22T11:29:35Z</time>
      </trkpt>
      <trkpt lat="44.11907000" lon="5.422440000">
        <ele>784.00000</ele>
        <time>2011-01-22T11:29:44Z</time>
      </trkpt>
      <trkpt lat="44.11935000" lon="5.422860000">
        <ele>784.00000</ele>
        <time>2011-01-22T11:30:00Z</time>
      </trkpt>
      <trkpt lat="44.12101000" lon="5.423480000">
        <ele>777.00000</ele>
        <time>2011-01-22T11:31:09Z</time>
      </trkpt>
      <trkpt lat="44.12114000" lon="5.423480000">
        <ele>777.00000</ele>
        <time>2011-01-22T11:31:14Z</time>
      </trkpt>
      <trkpt lat="44.12251000" lon="5.423090000">
        <ele>770.00000</ele>
        <time>2011-01-22T11:32:10Z</time>
      </trkpt>
      <trkpt lat="44.12289000" lon="5.423040000">
        <ele>770.00000</ele>
        <time>2011-01-22T11:32:26Z</time>
      </trkpt>
      <trkpt lat="44.12305000" lon="5.423080000">
        <ele>777.00000</ele>
        <time>2011-01-22T11:32:32Z</time>
      </trkpt>
      <trkpt lat="44.12359000" lon="5.423880000">
        <ele>785.00000</ele>
        <time>2011-01-22T11:33:04Z</time>
      </trkpt>
      <trkpt lat="44.12406000" lon="5.424740000">
        <ele>793.00000</ele>
        <time>2011-01-22T11:33:35Z</time>
      </trkpt>
      <trkpt lat="44.12432000" lon="5.425060000">
        <ele>793.00000</ele>
        <time>2011-01-22T11:33:49Z</time>
      </trkpt>
      <trkpt lat="44.12472000" lon="5.425440000">
        <ele>793.00000</ele>
        <time>2011-01-22T11:34:08Z</time>
      </trkpt>
      <trkpt lat="44.12536000" lon="5.426320000">
        <ele>811.00000</ele>
        <time>2011-01-22T11:34:44Z</time>
      </trkpt>
      <trkpt lat="44.12740000" lon="5.427150000">
        <ele>790.00000</ele>
        <time>2011-01-22T11:36:09Z</time>
      </trkpt>
      <trkpt lat="44.12783000" lon="5.427210000">
        <ele>790.00000</ele>
        <time>2011-01-22T11:36:26Z</time>
      </trkpt>
      <trkpt lat="44.12817000" lon="5.427240000">
        <ele>781.00000</ele>
        <time>2011-01-22T11:36:40Z</time>
      </trkpt>
      <trkpt lat="44.12828000" lon="5.427320000">
        <ele>781.00000</ele>
        <time>2011-01-22T11:36:45Z</time>
      </trkpt>
      <trkpt lat="44.12859000" lon="5.427730000">
        <ele>781.00000</ele>
        <time>2011-01-22T11:37:02Z</time>
      </trkpt>
      <trkpt lat="44.12909000" lon="5.428140000">
        <ele>799.00000</ele>
        <time>2011-01-22T11:37:25Z</time>
      </trkpt>
      <trkpt lat="44.12932000" lon="5.428240000">
        <ele>799.00000</ele>
        <time>2011-01-22T11:37:35Z</time>
      </trkpt>
      <trkpt lat="44.12941000" lon="5.428210000">
        <ele>799.00000</ele>
        <time>2011-01-22T11:37:39Z</time>
      </trkpt>
      <trkpt lat="44.12945000" lon="5.428130000">
        <ele>799.00000</ele>
        <time>2011-01-22T11:37:41Z</time>
      </trkpt>
      <trkpt lat="44.12946000" lon="5.427950000">
        <ele>799.00000</ele>
        <time>2011-01-22T11:37:47Z</time>
      </trkpt>
      <trkpt lat="44.12937000" lon="5.427760000">
        <ele>780.00000</ele>
        <time>2011-01-22T11:37:53Z</time>
      </trkpt>
      <trkpt lat="44.12911000" lon="5.427410000">
        <ele>780.00000</ele>
        <time>2011-01-22T11:38:08Z</time>
      </trkpt>
      <trkpt lat="44.12909000" lon="5.427220000">
        <ele>780.00000</ele>
        <time>2011-01-22T11:38:13Z</time>
      </trkpt>
      <trkpt lat="44.12922000" lon="5.426960000">
        <ele>768.00000</ele>
        <time>2011-01-22T11:38:22Z</time>
      </trkpt>
      <trkpt lat="44.12948000" lon="5.426770000">
        <ele>768.00000</ele>
        <time>2011-01-22T11:38:34Z</time>
      </trkpt>
      <trkpt lat="44.12983000" lon="5.426800000">
        <ele>768.00000</ele>
        <time>2011-01-22T11:38:48Z</time>
      </trkpt>
      <trkpt lat="44.13091000" lon="5.427580000">
        <ele>779.00000</ele>
        <time>2011-01-22T11:39:37Z</time>
      </trkpt>
      <trkpt lat="44.13138000" lon="5.427750000">
        <ele>772.00000</ele>
        <time>2011-01-22T11:39:56Z</time>
      </trkpt>
      <trkpt lat="44.13151000" lon="5.427960000">
        <ele>789.00000</ele>
        <time>2011-01-22T11:40:04Z</time>
      </trkpt>
      <trkpt lat="44.13166000" lon="5.428010000">
        <ele>789.00000</ele>
        <time>2011-01-22T11:40:10Z</time>
      </trkpt>
      <trkpt lat="44.13198000" lon="5.428000000">
        <ele>789.00000</ele>
        <time>2011-01-22T11:40:23Z</time>
      </trkpt>
      <trkpt lat="44.13225000" lon="5.427930000">
        <ele>788.00000</ele>
        <time>2011-01-22T11:40:34Z</time>
      </trkpt>
      <trkpt lat="44.13323000" lon="5.427510000">
        <ele>782.00000</ele>
        <time>2011-01-22T11:41:15Z</time>
      </trkpt>
      <trkpt lat="44.13370000" lon="5.426620000">
        <ele>773.00000</ele>
        <time>2011-01-22T11:41:47Z</time>
      </trkpt>
      <trkpt lat="44.13457000" lon="5.426230000">
        <ele>773.00000</ele>
        <time>2011-01-22T11:42:23Z</time>
      </trkpt>
      <trkpt lat="44.13518000" lon="5.426180000">
        <ele>778.00000</ele>
        <time>2011-01-22T11:42:48Z</time>
      </trkpt>
      <trkpt lat="44.13524000" lon="5.426140000">
        <ele>778.00000</ele>
        <time>2011-01-22T11:42:51Z</time>
      </trkpt>
      <trkpt lat="44.13562000" lon="5.425430000">
        <ele>779.00000</ele>
        <time>2011-01-22T11:43:16Z</time>
      </trkpt>
      <trkpt lat="44.13577000" lon="5.425230000">
        <ele>780.00000</ele>
        <time>2011-01-22T11:43:24Z</time>
      </trkpt>
      <trkpt lat="44.13605000" lon="5.425020000">
        <ele>780.00000</ele>
        <time>2011-01-22T11:43:37Z</time>
      </trkpt>
      <trkpt lat="44.13718000" lon="5.424470000">
        <ele>786.00000</ele>
        <time>2011-01-22T11:44:25Z</time>
      </trkpt>
      <trkpt lat="44.13750000" lon="5.424450000">
        <ele>786.00000</ele>
        <time>2011-01-22T11:44:38Z</time>
      </trkpt>
      <trkpt lat="44.13779000" lon="5.424600000">
        <ele>776.00000</ele>
        <time>2011-01-22T11:44:50Z</time>
      </trkpt>
      <trkpt lat="44.13793000" lon="5.424750000">
        <ele>765.00000</ele>
        <time>2011-01-22T11:44:57Z</time>
      </trkpt>
      <trkpt lat="44.13817000" lon="5.425200000">
        <ele>765.00000</ele>
        <time>2011-01-22T11:45:13Z</time>
      </trkpt>
      <trkpt lat="44.13872000" lon="5.426220000">
        <ele>759.00000</ele>
        <time>2011-01-22T11:45:50Z</time>
      </trkpt>
      <trkpt lat="44.13880000" lon="5.426270000">
        <ele>760.00000</ele>
        <time>2011-01-22T11:45:53Z</time>
      </trkpt>
      <trkpt lat="44.13942000" lon="5.426330000">
        <ele>760.00000</ele>
        <time>2011-01-22T11:46:18Z</time>
      </trkpt>
      <trkpt lat="44.13981000" lon="5.427180000">
        <ele>760.00000</ele>
        <time>2011-01-22T11:46:47Z</time>
      </trkpt>
      <trkpt lat="44.13996000" lon="5.427280000">
        <ele>760.00000</ele>
        <time>2011-01-22T11:46:54Z</time>
      </trkpt>
      <trkpt lat="44.14044000" lon="5.427360000">
        <ele>759.00000</ele>
        <time>2011-01-22T11:47:13Z</time>
      </trkpt>
      <trkpt lat="44.14082000" lon="5.428250000">
        <ele>760.00000</ele>
        <time>2011-01-22T11:47:43Z</time>
      </trkpt>
      <trkpt lat="44.14129000" lon="5.428600000">
        <ele>750.00000</ele>
        <time>2011-01-22T11:48:04Z</time>
      </trkpt>
      <trkpt lat="44.14143000" lon="5.428820000">
        <ele>744.00000</ele>
        <time>2011-01-22T11:48:13Z</time>
      </trkpt>
      <trkpt lat="44.14147000" lon="5.429010000">
        <ele>744.00000</ele>
        <time>2011-01-22T11:48:19Z</time>
      </trkpt>
      <trkpt lat="44.14120000" lon="5.429810000">
        <ele>742.00000</ele>
        <time>2011-01-22T11:48:44Z</time>
      </trkpt>
      <trkpt lat="44.14115000" lon="5.430060000">
        <ele>742.00000</ele>
        <time>2011-01-22T11:48:51Z</time>
      </trkpt>
      <trkpt lat="44.14108000" lon="5.430270000">
        <ele>742.00000</ele>
        <time>2011-01-22T11:48:58Z</time>
      </trkpt>
      <trkpt lat="44.14070000" lon="5.430910000">
        <ele>724.00000</ele>
        <time>2011-01-22T11:49:22Z</time>
      </trkpt>
      <trkpt lat="44.14069000" lon="5.431060000">
        <ele>724.00000</ele>
        <time>2011-01-22T11:49:26Z</time>
      </trkpt>
      <trkpt lat="44.14177000" lon="5.430500000">
        <ele>720.00000</ele>
        <time>2011-01-22T11:50:12Z</time>
      </trkpt>
      <trkpt lat="44.14262000" lon="5.430720000">
        <ele>708.00000</ele>
        <time>2011-01-22T11:50:47Z</time>
      </trkpt>
      <trkpt lat="44.14287000" lon="5.430700000">
        <ele>708.00000</ele>
        <time>2011-01-22T11:50:57Z</time>
      </trkpt>
      <trkpt lat="44.14365000" lon="5.431070000">
        <ele>698.00000</ele>
        <time>2011-01-22T11:51:30Z</time>
      </trkpt>
      <trkpt lat="44.14517000" lon="5.430740000">
        <ele>681.00000</ele>
        <time>2011-01-22T11:52:32Z</time>
      </trkpt>
      <trkpt lat="44.14552000" lon="5.430780000">
        <ele>680.00000</ele>
        <time>2011-01-22T11:52:46Z</time>
      </trkpt>
      <trkpt lat="44.14626000" lon="5.431050000">
        <ele>680.00000</ele>
        <time>2011-01-22T11:53:16Z</time>
      </trkpt>
      <trkpt lat="44.14652000" lon="5.431290000">
        <ele>680.00000</ele>
        <time>2011-01-22T11:53:29Z</time>
      </trkpt>
      <trkpt lat="44.14682000" lon="5.431330000">
        <ele>680.00000</ele>
        <time>2011-01-22T11:53:41Z</time>
      </trkpt>
      <trkpt lat="44.14794000" lon="5.432350000">
        <ele>659.00000</ele>
        <time>2011-01-22T11:54:34Z</time>
      </trkpt>
      <trkpt lat="44.14848000" lon="5.432980000">
        <ele>651.00000</ele>
        <time>2011-01-22T11:55:03Z</time>
      </trkpt>
      <trkpt lat="44.14882000" lon="5.433090000">
        <ele>644.00000</ele>
        <time>2011-01-22T11:55:17Z</time>
      </trkpt>
      <trkpt lat="44.14925000" lon="5.433540000">
        <ele>644.00000</ele>
        <time>2011-01-22T11:55:38Z</time>
      </trkpt>
      <trkpt lat="44.14950000" lon="5.433690000">
        <ele>644.00000</ele>
        <time>2011-01-22T11:55:49Z</time>
      </trkpt>
      <trkpt lat="44.15014000" lon="5.433770000">
        <ele>628.00000</ele>
        <time>2011-01-22T11:56:15Z</time>
      </trkpt>
      <trkpt lat="44.15035000" lon="5.433850000">
        <ele>628.00000</ele>
        <time>2011-01-22T11:56:23Z</time>
      </trkpt>
      <trkpt lat="44.15073000" lon="5.434210000">
        <ele>622.00000</ele>
        <time>2011-01-22T11:56:42Z</time>
      </trkpt>
      <trkpt lat="44.15145000" lon="5.434590000">
        <ele>620.00000</ele>
        <time>2011-01-22T11:57:13Z</time>
      </trkpt>
      <trkpt lat="44.15169000" lon="5.434860000">
        <ele>620.00000</ele>
        <time>2011-01-22T11:57:25Z</time>
      </trkpt>
      <trkpt lat="44.15175000" lon="5.435090000">
        <ele>620.00000</ele>
        <time>2011-01-22T11:57:32Z</time>
      </trkpt>
      <trkpt lat="44.15204000" lon="5.434990000">
        <ele>620.00000</ele>
        <time>2011-01-22T11:57:44Z</time>
      </trkpt>
      <trkpt lat="44.15285000" lon="5.435110000">
        <ele>620.00000</ele>
        <time>2011-01-22T11:58:17Z</time>
      </trkpt>
      <trkpt lat="44.15312000" lon="5.435080000">
        <ele>620.00000</ele>
        <time>2011-01-22T11:58:27Z</time>
      </trkpt>
      <trkpt lat="44.15344000" lon="5.435430000">
        <ele>620.00000</ele>
        <time>2011-01-22T11:58:44Z</time>
      </trkpt>
      <trkpt lat="44.15382000" lon="5.435770000">
        <ele>620.00000</ele>
        <time>2011-01-22T11:59:02Z</time>
      </trkpt>
      <trkpt lat="44.15540000" lon="5.435980000">
        <ele>620.00000</ele>
        <time>2011-01-22T12:00:05Z</time>
      </trkpt>
      <trkpt lat="44.15599000" lon="5.435520000">
        <ele>620.00000</ele>
        <time>2011-01-22T12:00:32Z</time>
      </trkpt>
      <trkpt lat="44.15647000" lon="5.435430000">
        <ele>620.00000</ele>
        <time>2011-01-22T12:00:52Z</time>
      </trkpt>
      <trkpt lat="44.15697000" lon="5.435230000">
        <ele>632.00000</ele>
        <time>2011-01-22T12:01:13Z</time>
      </trkpt>
      <trkpt lat="44.15799000" lon="5.434970000">
        <ele>620.00000</ele>
        <time>2011-01-22T12:01:54Z</time>
      </trkpt>
      <trkpt lat="44.15808000" lon="5.434920000">
        <ele>620.00000</ele>
        <time>2011-01-22T12:01:58Z</time>
      </trkpt>
      <trkpt lat="44.15820000" lon="5.434750000">
        <ele>620.00000</ele>
        <time>2011-01-22T12:02:05Z</time>
      </trkpt>
      <trkpt lat="44.15872000" lon="5.433780000">
        <ele>625.00000</ele>
        <time>2011-01-22T12:02:40Z</time>
      </trkpt>
      <trkpt lat="44.15883000" lon="5.433650000">
        <ele>622.00000</ele>
        <time>2011-01-22T12:02:45Z</time>
      </trkpt>
      <trkpt lat="44.15959000" lon="5.433360000">
        <ele>617.00000</ele>
        <time>2011-01-22T12:03:17Z</time>
      </trkpt>
      <trkpt lat="44.16009000" lon="5.433070000">
        <ele>617.00000</ele>
        <time>2011-01-22T12:03:39Z</time>
      </trkpt>
      <trkpt lat="44.16077000" lon="5.432970000">
        <ele>625.00000</ele>
        <time>2011-01-22T12:04:06Z</time>
      </trkpt>
      <trkpt lat="44.16096000" lon="5.432880000">
        <ele>606.00000</ele>
        <time>2011-01-22T12:04:14Z</time>
      </trkpt>
      <trkpt lat="44.16171000" lon="5.432240000">
        <ele>613.00000</ele>
        <time>2011-01-22T12:04:49Z</time>
      </trkpt>
      <trkpt lat="44.16210000" lon="5.431980000">
        <ele>598.00000</ele>
        <time>2011-01-22T12:05:06Z</time>
      </trkpt>
      <trkpt lat="44.16282000" lon="5.431550000">
        <ele>598.00000</ele>
        <time>2011-01-22T12:05:38Z</time>
      </trkpt>
      <trkpt lat="44.16313000" lon="5.431500000">
        <ele>595.00000</ele>
        <time>2011-01-22T12:05:50Z</time>
      </trkpt>
      <trkpt lat="44.16383000" lon="5.431620000">
        <ele>581.00000</ele>
        <time>2011-01-22T12:06:19Z</time>
      </trkpt>
      <trkpt lat="44.16473000" lon="5.431860000">
        <ele>579.00000</ele>
        <time>2011-01-22T12:06:55Z</time>
      </trkpt>
      <trkpt lat="44.16666000" lon="5.432530000">
        <ele>579.00000</ele>
        <time>2011-01-22T12:08:15Z</time>
      </trkpt>
      <trkpt lat="44.16749000" lon="5.433000000">
        <ele>580.00000</ele>
        <time>2011-01-22T12:08:51Z</time>
      </trkpt>
      <trkpt lat="44.16777000" lon="5.432990000">
        <ele>580.00000</ele>
        <time>2011-01-22T12:09:02Z</time>
      </trkpt>
      <trkpt lat="44.16841000" lon="5.432720000">
        <ele>578.00000</ele>
        <time>2011-01-22T12:09:29Z</time>
      </trkpt>
      <trkpt lat="44.16875000" lon="5.432680000">
        <ele>577.00000</ele>
        <time>2011-01-22T12:09:42Z</time>
      </trkpt>
      <trkpt lat="44.16951000" lon="5.433420000">
        <ele>580.00000</ele>
        <time>2011-01-22T12:10:19Z</time>
      </trkpt>
      <trkpt lat="44.16998000" lon="5.433980000">
        <ele>579.00000</ele>
        <time>2011-01-22T12:10:44Z</time>
      </trkpt>
      <trkpt lat="44.17160000" lon="5.435490000">
        <ele>578.00000</ele>
        <time>2011-01-22T12:12:02Z</time>
      </trkpt>
      <trkpt lat="44.17215000" lon="5.436140000">
        <ele>578.00000</ele>
        <time>2011-01-22T12:12:31Z</time>
      </trkpt>
      <trkpt lat="44.17411000" lon="5.436490000">
        <ele>586.00000</ele>
        <time>2011-01-22T12:13:50Z</time>
      </trkpt>
      <trkpt lat="44.17437000" lon="5.438780000">
        <ele>593.00000</ele>
        <time>2011-01-22T12:14:57Z</time>
      </trkpt>
      <trkpt lat="44.17465000" lon="5.441740000">
        <ele>599.00000</ele>
        <time>2011-01-22T12:16:22Z</time>
      </trkpt>
      <trkpt lat="44.17502000" lon="5.441650000">
        <ele>599.00000</ele>
        <time>2011-01-22T12:16:38Z</time>
      </trkpt>
      <trkpt lat="44.17510000" lon="5.441680000">
        <ele>599.00000</ele>
        <time>2011-01-22T12:16:41Z</time>
      </trkpt>
      <trkpt lat="44.17515000" lon="5.441770000">
        <ele>599.00000</ele>
        <time>2011-01-22T12:16:44Z</time>
      </trkpt>
      <trkpt lat="44.17529000" lon="5.442980000">
        <ele>599.00000</ele>
        <time>2011-01-22T12:17:19Z</time>
      </trkpt>
      <trkpt lat="44.17553000" lon="5.444440000">
        <ele>604.00000</ele>
        <time>2011-01-22T12:18:02Z</time>
      </trkpt>
      <trkpt lat="44.17511000" lon="5.444600000">
        <ele>599.00000</ele>
        <time>2011-01-22T12:18:20Z</time>
      </trkpt>
      <trkpt lat="44.17452000" lon="5.445180000">
        <ele>599.00000</ele>
        <time>2011-01-22T12:18:49Z</time>
      </trkpt>
      <trkpt lat="44.17400000" lon="5.445020000">
        <ele>599.00000</ele>
        <time>2011-01-22T12:19:10Z</time>
      </trkpt>
      <trkpt lat="44.17367000" lon="5.445110000">
        <ele>601.00000</ele>
        <time>2011-01-22T12:19:23Z</time>
      </trkpt>
      <trkpt lat="44.17245000" lon="5.445910000">
        <ele>610.00000</ele>
        <time>2011-01-22T12:20:17Z</time>
      </trkpt>
      <trkpt lat="44.17141000" lon="5.446000000">
        <ele>612.00000</ele>
        <time>2011-01-22T12:20:59Z</time>
      </trkpt>
      <trkpt lat="44.17006000" lon="5.446230000">
        <ele>628.00000</ele>
        <time>2011-01-22T12:21:54Z</time>
      </trkpt>
      <trkpt lat="44.16945000" lon="5.447680000">
        <ele>640.00000</ele>
        <time>2011-01-22T12:22:42Z</time>
      </trkpt>
      <trkpt lat="44.16906000" lon="5.449010000">
        <ele>646.00000</ele>
        <time>2011-01-22T12:23:23Z</time>
      </trkpt>
      <trkpt lat="44.16899000" lon="5.449420000">
        <ele>646.00000</ele>
        <time>2011-01-22T12:23:35Z</time>
      </trkpt>
      <trkpt lat="44.16892000" lon="5.449510000">
        <ele>646.00000</ele>
        <time>2011-01-22T12:23:39Z</time>
      </trkpt>
      <trkpt lat="44.16876000" lon="5.449420000">
        <ele>646.00000</ele>
        <time>2011-01-22T12:23:46Z</time>
      </trkpt>
      <trkpt lat="44.16807000" lon="5.448660000">
        <ele>651.00000</ele>
        <time>2011-01-22T12:24:21Z</time>
      </trkpt>
      <trkpt lat="44.16811000" lon="5.447900000">
        <ele>648.00000</ele>
        <time>2011-01-22T12:24:43Z</time>
      </trkpt>
      <trkpt lat="44.16805000" lon="5.447550000">
        <ele>648.00000</ele>
        <time>2011-01-22T12:24:53Z</time>
      </trkpt>
      <trkpt lat="44.16788000" lon="5.447480000">
        <ele>660.00000</ele>
        <time>2011-01-22T12:25:00Z</time>
      </trkpt>
      <trkpt lat="44.16777000" lon="5.447490000">
        <ele>660.00000</ele>
        <time>2011-01-22T12:25:05Z</time>
      </trkpt>
      <trkpt lat="44.16725000" lon="5.447660000">
        <ele>660.00000</ele>
        <time>2011-01-22T12:25:26Z</time>
      </trkpt>
      <trkpt lat="44.16684000" lon="5.447690000">
        <ele>669.00000</ele>
        <time>2011-01-22T12:25:43Z</time>
      </trkpt>
      <trkpt lat="44.16657000" lon="5.447620000">
        <ele>669.00000</ele>
        <time>2011-01-22T12:25:54Z</time>
      </trkpt>
      <trkpt lat="44.16638000" lon="5.447440000">
        <ele>669.00000</ele>
        <time>2011-01-22T12:26:03Z</time>
      </trkpt>
      <trkpt lat="44.16603000" lon="5.446820000">
        <ele>689.00000</ele>
        <time>2011-01-22T12:26:25Z</time>
      </trkpt>
      <trkpt lat="44.16576000" lon="5.446460000">
        <ele>689.00000</ele>
        <time>2011-01-22T12:26:40Z</time>
      </trkpt>
      <trkpt lat="44.16544000" lon="5.445580000">
        <ele>683.00000</ele>
        <time>2011-01-22T12:27:09Z</time>
      </trkpt>
      <trkpt lat="44.16516000" lon="5.445030000">
        <ele>700.00000</ele>
        <time>2011-01-22T12:27:28Z</time>
      </trkpt>
      <trkpt lat="44.16465000" lon="5.444740000">
        <ele>700.00000</ele>
        <time>2011-01-22T12:27:50Z</time>
      </trkpt>
      <trkpt lat="44.16460000" lon="5.444480000">
        <ele>692.00000</ele>
        <time>2011-01-22T12:27:58Z</time>
      </trkpt>
      <trkpt lat="44.16469000" lon="5.444060000">
        <ele>692.00000</ele>
        <time>2011-01-22T12:28:10Z</time>
      </trkpt>
      <trkpt lat="44.16468000" lon="5.443830000">
        <ele>692.00000</ele>
        <time>2011-01-22T12:28:17Z</time>
      </trkpt>
      <trkpt lat="44.16457000" lon="5.443610000">
        <ele>692.00000</ele>
        <time>2011-01-22T12:28:25Z</time>
      </trkpt>
      <trkpt lat="44.16445000" lon="5.443610000">
        <ele>692.00000</ele>
        <time>2011-01-22T12:28:30Z</time>
      </trkpt>
      <trkpt lat="44.16404000" lon="5.444730000">
        <ele>720.00000</ele>
        <time>2011-01-22T12:29:06Z</time>
      </trkpt>
      <trkpt lat="44.16412000" lon="5.445740000">
        <ele>731.00000</ele>
        <time>2011-01-22T12:29:35Z</time>
      </trkpt>
      <trkpt lat="44.16447000" lon="5.447710000">
        <ele>753.00000</ele>
        <time>2011-01-22T12:30:33Z</time>
      </trkpt>
      <trkpt lat="44.16442000" lon="5.448460000">
        <ele>763.00000</ele>
        <time>2011-01-22T12:30:55Z</time>
      </trkpt>
      <trkpt lat="44.16437000" lon="5.448620000">
        <ele>763.00000</ele>
        <time>2011-01-22T12:31:00Z</time>
      </trkpt>
      <trkpt lat="44.16428000" lon="5.448590000">
        <ele>763.00000</ele>
        <time>2011-01-22T12:31:03Z</time>
      </trkpt>
      <trkpt lat="44.16402000" lon="5.447910000">
        <ele>753.00000</ele>
        <time>2011-01-22T12:31:26Z</time>
      </trkpt>
      <trkpt lat="44.16363000" lon="5.447070000">
        <ele>772.00000</ele>
        <time>2011-01-22T12:31:54Z</time>
      </trkpt>
      <trkpt lat="44.16358000" lon="5.446480000">
        <ele>772.00000</ele>
        <time>2011-01-22T12:32:11Z</time>
      </trkpt>
      <trkpt lat="44.16347000" lon="5.446120000">
        <ele>759.00000</ele>
        <time>2011-01-22T12:32:23Z</time>
      </trkpt>
      <trkpt lat="44.16299000" lon="5.445440000">
        <ele>759.00000</ele>
        <time>2011-01-22T12:32:50Z</time>
      </trkpt>
      <trkpt lat="44.16267000" lon="5.444780000">
        <ele>783.00000</ele>
        <time>2011-01-22T12:33:13Z</time>
      </trkpt>
      <trkpt lat="44.16227000" lon="5.443770000">
        <ele>767.00000</ele>
        <time>2011-01-22T12:33:46Z</time>
      </trkpt>
      <trkpt lat="44.16206000" lon="5.442740000">
        <ele>775.00000</ele>
        <time>2011-01-22T12:34:17Z</time>
      </trkpt>
      <trkpt lat="44.16195000" lon="5.442420000">
        <ele>775.00000</ele>
        <time>2011-01-22T12:34:27Z</time>
      </trkpt>
      <trkpt lat="44.16181000" lon="5.442090000">
        <ele>775.00000</ele>
        <time>2011-01-22T12:34:38Z</time>
      </trkpt>
      <trkpt lat="44.16154000" lon="5.441640000">
        <ele>759.00000</ele>
        <time>2011-01-22T12:34:55Z</time>
      </trkpt>
      <trkpt lat="44.16137000" lon="5.441440000">
        <ele>759.00000</ele>
        <time>2011-01-22T12:35:04Z</time>
      </trkpt>
      <trkpt lat="44.16112000" lon="5.441320000">
        <ele>783.00000</ele>
        <time>2011-01-22T12:35:14Z</time>
      </trkpt>
      <trkpt lat="44.15958000" lon="5.441330000">
        <ele>801.00000</ele>
        <time>2011-01-22T12:36:16Z</time>
      </trkpt>
      <trkpt lat="44.15870000" lon="5.441190000">
        <ele>777.00000</ele>
        <time>2011-01-22T12:36:51Z</time>
      </trkpt>
      <trkpt lat="44.15789000" lon="5.441250000">
        <ele>768.00000</ele>
        <time>2011-01-22T12:37:24Z</time>
      </trkpt>
      <trkpt lat="44.15686000" lon="5.441690000">
        <ele>771.00000</ele>
        <time>2011-01-22T12:38:07Z</time>
      </trkpt>
      <trkpt lat="44.15656000" lon="5.441870000">
        <ele>771.00000</ele>
        <time>2011-01-22T12:38:20Z</time>
      </trkpt>
      <trkpt lat="44.15624000" lon="5.442150000">
        <ele>760.00000</ele>
        <time>2011-01-22T12:38:35Z</time>
      </trkpt>
      <trkpt lat="44.15599000" lon="5.442500000">
        <ele>760.00000</ele>
        <time>2011-01-22T12:38:49Z</time>
      </trkpt>
      <trkpt lat="44.15597000" lon="5.442990000">
        <ele>772.00000</ele>
        <time>2011-01-22T12:39:03Z</time>
      </trkpt>
      <trkpt lat="44.15589000" lon="5.443520000">
        <ele>772.00000</ele>
        <time>2011-01-22T12:39:19Z</time>
      </trkpt>
      <trkpt lat="44.15597000" lon="5.444040000">
        <ele>783.00000</ele>
        <time>2011-01-22T12:39:34Z</time>
      </trkpt>
      <trkpt lat="44.15595000" lon="5.444590000">
        <ele>794.00000</ele>
        <time>2011-01-22T12:39:50Z</time>
      </trkpt>
      <trkpt lat="44.15588000" lon="5.444810000">
        <ele>794.00000</ele>
        <time>2011-01-22T12:39:57Z</time>
      </trkpt>
      <trkpt lat="44.15565000" lon="5.445220000">
        <ele>794.00000</ele>
        <time>2011-01-22T12:40:12Z</time>
      </trkpt>
      <trkpt lat="44.15566000" lon="5.445770000">
        <ele>809.00000</ele>
        <time>2011-01-22T12:40:28Z</time>
      </trkpt>
      <trkpt lat="44.15561000" lon="5.446000000">
        <ele>809.00000</ele>
        <time>2011-01-22T12:40:35Z</time>
      </trkpt>
      <trkpt lat="44.15564000" lon="5.446320000">
        <ele>825.00000</ele>
        <time>2011-01-22T12:40:44Z</time>
      </trkpt>
      <trkpt lat="44.15579000" lon="5.446920000">
        <ele>825.00000</ele>
        <time>2011-01-22T12:41:02Z</time>
      </trkpt>
      <trkpt lat="44.15585000" lon="5.447360000">
        <ele>846.00000</ele>
        <time>2011-01-22T12:41:15Z</time>
      </trkpt>
      <trkpt lat="44.15581000" lon="5.447540000">
        <ele>846.00000</ele>
        <time>2011-01-22T12:41:20Z</time>
      </trkpt>
      <trkpt lat="44.15577000" lon="5.447570000">
        <ele>846.00000</ele>
        <time>2011-01-22T12:41:22Z</time>
      </trkpt>
      <trkpt lat="44.15565000" lon="5.447530000">
        <ele>846.00000</ele>
        <time>2011-01-22T12:41:27Z</time>
      </trkpt>
      <trkpt lat="44.15544000" lon="5.447200000">
        <ele>846.00000</ele>
        <time>2011-01-22T12:41:40Z</time>
      </trkpt>
      <trkpt lat="44.15504000" lon="5.446900000">
        <ele>832.00000</ele>
        <time>2011-01-22T12:41:58Z</time>
      </trkpt>
      <trkpt lat="44.15466000" lon="5.446510000">
        <ele>832.00000</ele>
        <time>2011-01-22T12:42:17Z</time>
      </trkpt>
      <trkpt lat="44.15450000" lon="5.446470000">
        <ele>850.00000</ele>
        <time>2011-01-22T12:42:24Z</time>
      </trkpt>
      <trkpt lat="44.15437000" lon="5.446570000">
        <ele>850.00000</ele>
        <time>2011-01-22T12:42:29Z</time>
      </trkpt>
      <trkpt lat="44.15401000" lon="5.447330000">
        <ele>873.00000</ele>
        <time>2011-01-22T12:42:56Z</time>
      </trkpt>
      <trkpt lat="44.15384000" lon="5.447560000">
        <ele>873.00000</ele>
        <time>2011-01-22T12:43:05Z</time>
      </trkpt>
      <trkpt lat="44.15169000" lon="5.448720000">
        <ele>846.00000</ele>
        <time>2011-01-22T12:44:37Z</time>
      </trkpt>
      <trkpt lat="44.15126000" lon="5.449000000">
        <ele>866.00000</ele>
        <time>2011-01-22T12:44:56Z</time>
      </trkpt>
      <trkpt lat="44.15097000" lon="5.449280000">
        <ele>858.00000</ele>
        <time>2011-01-22T12:45:10Z</time>
      </trkpt>
      <trkpt lat="44.15081000" lon="5.449500000">
        <ele>858.00000</ele>
        <time>2011-01-22T12:45:19Z</time>
      </trkpt>
      <trkpt lat="44.15059000" lon="5.450080000">
        <ele>878.00000</ele>
        <time>2011-01-22T12:45:38Z</time>
      </trkpt>
      <trkpt lat="44.15055000" lon="5.450100000">
        <ele>878.00000</ele>
        <time>2011-01-22T12:45:40Z</time>
      </trkpt>
      <trkpt lat="44.15046000" lon="5.450080000">
        <ele>878.00000</ele>
        <time>2011-01-22T12:45:44Z</time>
      </trkpt>
      <trkpt lat="44.15016000" lon="5.449300000">
        <ele>884.00000</ele>
        <time>2011-01-22T12:46:09Z</time>
      </trkpt>
      <trkpt lat="44.15001000" lon="5.449010000">
        <ele>884.00000</ele>
        <time>2011-01-22T12:46:19Z</time>
      </trkpt>
      <trkpt lat="44.14957000" lon="5.448610000">
        <ele>885.00000</ele>
        <time>2011-01-22T12:46:40Z</time>
      </trkpt>
      <trkpt lat="44.14899000" lon="5.447790000">
        <ele>851.00000</ele>
        <time>2011-01-22T12:47:13Z</time>
      </trkpt>
      <trkpt lat="44.14872000" lon="5.447680000">
        <ele>850.00000</ele>
        <time>2011-01-22T12:47:25Z</time>
      </trkpt>
      <trkpt lat="44.14798000" lon="5.447570000">
        <ele>850.00000</ele>
        <time>2011-01-22T12:47:55Z</time>
      </trkpt>
      <trkpt lat="44.14782000" lon="5.447570000">
        <ele>849.00000</ele>
        <time>2011-01-22T12:48:01Z</time>
      </trkpt>
      <trkpt lat="44.14708000" lon="5.447830000">
        <ele>864.00000</ele>
        <time>2011-01-22T12:48:31Z</time>
      </trkpt>
      <trkpt lat="44.14616000" lon="5.447800000">
        <ele>870.00000</ele>
        <time>2011-01-22T12:49:08Z</time>
      </trkpt>
      <trkpt lat="44.14560000" lon="5.447920000">
        <ele>895.00000</ele>
        <time>2011-01-22T12:49:31Z</time>
      </trkpt>
      <trkpt lat="44.14482000" lon="5.447950000">
        <ele>879.00000</ele>
        <time>2011-01-22T12:50:02Z</time>
      </trkpt>
      <trkpt lat="44.14418000" lon="5.448040000">
        <ele>862.00000</ele>
        <time>2011-01-22T12:50:28Z</time>
      </trkpt>
      <trkpt lat="44.14379000" lon="5.448220000">
        <ele>862.00000</ele>
        <time>2011-01-22T12:50:44Z</time>
      </trkpt>
      <trkpt lat="44.14288000" lon="5.449250000">
        <ele>873.00000</ele>
        <time>2011-01-22T12:51:31Z</time>
      </trkpt>
      <trkpt lat="44.14196000" lon="5.449350000">
        <ele>869.00000</ele>
        <time>2011-01-22T12:52:08Z</time>
      </trkpt>
      <trkpt lat="44.14178000" lon="5.449460000">
        <ele>869.00000</ele>
        <time>2011-01-22T12:52:16Z</time>
      </trkpt>
      <trkpt lat="44.14118000" lon="5.450290000">
        <ele>877.00000</ele>
        <time>2011-01-22T12:52:50Z</time>
      </trkpt>
      <trkpt lat="44.14112000" lon="5.450550000">
        <ele>881.00000</ele>
        <time>2011-01-22T12:52:58Z</time>
      </trkpt>
      <trkpt lat="44.14113000" lon="5.450890000">
        <ele>881.00000</ele>
        <time>2011-01-22T12:53:08Z</time>
      </trkpt>
      <trkpt lat="44.14124000" lon="5.451110000">
        <ele>881.00000</ele>
        <time>2011-01-22T12:53:15Z</time>
      </trkpt>
      <trkpt lat="44.14250000" lon="5.452910000">
        <ele>894.00000</ele>
        <time>2011-01-22T12:54:28Z</time>
      </trkpt>
      <trkpt lat="44.14255000" lon="5.453060000">
        <ele>893.00000</ele>
        <time>2011-01-22T12:54:32Z</time>
      </trkpt>
      <trkpt lat="44.14251000" lon="5.453530000">
        <ele>893.00000</ele>
        <time>2011-01-22T12:54:46Z</time>
      </trkpt>
      <trkpt lat="44.14190000" lon="5.456010000">
        <ele>889.00000</ele>
        <time>2011-01-22T12:56:01Z</time>
      </trkpt>
      <trkpt lat="44.14104000" lon="5.459810000">
        <ele>902.00000</ele>
        <time>2011-01-22T12:57:56Z</time>
      </trkpt>
      <trkpt lat="44.14086000" lon="5.460230000">
        <ele>902.00000</ele>
        <time>2011-01-22T12:58:10Z</time>
      </trkpt>
      <trkpt lat="44.14038000" lon="5.460830000">
        <ele>903.00000</ele>
        <time>2011-01-22T12:58:36Z</time>
      </trkpt>
      <trkpt lat="44.14021000" lon="5.461260000">
        <ele>906.00000</ele>
        <time>2011-01-22T12:58:50Z</time>
      </trkpt>
      <trkpt lat="44.13983000" lon="5.464260000">
        <ele>913.00000</ele>
        <time>2011-01-22T13:00:17Z</time>
      </trkpt>
      <trkpt lat="44.13964000" lon="5.465170000">
        <ele>915.00000</ele>
        <time>2011-01-22T13:00:44Z</time>
      </trkpt>
      <trkpt lat="44.13849000" lon="5.468430000">
        <ele>908.00000</ele>
        <time>2011-01-22T13:02:29Z</time>
      </trkpt>
      <trkpt lat="44.13838000" lon="5.469150000">
        <ele>910.00000</ele>
        <time>2011-01-22T13:02:50Z</time>
      </trkpt>
      <trkpt lat="44.13822000" lon="5.471420000">
        <ele>917.00000</ele>
        <time>2011-01-22T13:03:55Z</time>
      </trkpt>
      <trkpt lat="44.13818000" lon="5.472490000">
        <ele>921.00000</ele>
        <time>2011-01-22T13:04:26Z</time>
      </trkpt>
      <trkpt lat="44.13775000" lon="5.474020000">
        <ele>936.00000</ele>
        <time>2011-01-22T13:05:13Z</time>
      </trkpt>
      <trkpt lat="44.13761000" lon="5.474750000">
        <ele>940.00000</ele>
        <time>2011-01-22T13:05:35Z</time>
      </trkpt>
      <trkpt lat="44.13749000" lon="5.475130000">
        <ele>940.00000</ele>
        <time>2011-01-22T13:05:47Z</time>
      </trkpt>
      <trkpt lat="44.13725000" lon="5.475650000">
        <ele>945.00000</ele>
        <time>2011-01-22T13:06:05Z</time>
      </trkpt>
      <trkpt lat="44.13709000" lon="5.475900000">
        <ele>945.00000</ele>
        <time>2011-01-22T13:06:14Z</time>
      </trkpt>
      <trkpt lat="44.13684000" lon="5.476170000">
        <ele>942.00000</ele>
        <time>2011-01-22T13:06:27Z</time>
      </trkpt>
      <trkpt lat="44.13554000" lon="5.476390000">
        <ele>939.00000</ele>
        <time>2011-01-22T13:07:20Z</time>
      </trkpt>
      <trkpt lat="44.13497000" lon="5.476690000">
        <ele>934.00000</ele>
        <time>2011-01-22T13:07:44Z</time>
      </trkpt>
      <trkpt lat="44.13386000" lon="5.477710000">
        <ele>932.00000</ele>
        <time>2011-01-22T13:08:37Z</time>
      </trkpt>
      <trkpt lat="44.13365000" lon="5.478290000">
        <ele>934.00000</ele>
        <time>2011-01-22T13:08:56Z</time>
      </trkpt>
      <trkpt lat="44.13358000" lon="5.478370000">
        <ele>934.00000</ele>
        <time>2011-01-22T13:08:59Z</time>
      </trkpt>
      <trkpt lat="44.13428000" lon="5.480040000">
        <ele>951.00000</ele>
        <time>2011-01-22T13:09:55Z</time>
      </trkpt>
      <trkpt lat="44.13398000" lon="5.480220000">
        <ele>951.00000</ele>
        <time>2011-01-22T13:10:08Z</time>
      </trkpt>
      <trkpt lat="44.13284000" lon="5.480560000">
        <ele>948.00000</ele>
        <time>2011-01-22T13:10:55Z</time>
      </trkpt>
      <trkpt lat="44.13224000" lon="5.480920000">
        <ele>948.00000</ele>
        <time>2011-01-22T13:11:21Z</time>
      </trkpt>
      <trkpt lat="44.13192000" lon="5.481240000">
        <ele>944.00000</ele>
        <time>2011-01-22T13:11:37Z</time>
      </trkpt>
      <trkpt lat="44.13112000" lon="5.482280000">
        <ele>944.00000</ele>
        <time>2011-01-22T13:12:20Z</time>
      </trkpt>
      <trkpt lat="44.13000000" lon="5.483560000">
        <ele>944.00000</ele>
        <time>2011-01-22T13:13:18Z</time>
      </trkpt>
      <trkpt lat="44.12931000" lon="5.483990000">
        <ele>944.00000</ele>
        <time>2011-01-22T13:13:49Z</time>
      </trkpt>
      <trkpt lat="44.12850000" lon="5.484770000">
        <ele>941.00000</ele>
        <time>2011-01-22T13:14:28Z</time>
      </trkpt>
      <trkpt lat="44.12768000" lon="5.485400000">
        <ele>935.00000</ele>
        <time>2011-01-22T13:15:06Z</time>
      </trkpt>
      <trkpt lat="44.12717000" lon="5.485930000">
        <ele>936.00000</ele>
        <time>2011-01-22T13:15:31Z</time>
      </trkpt>
      <trkpt lat="44.12691000" lon="5.486310000">
        <ele>929.00000</ele>
        <time>2011-01-22T13:15:46Z</time>
      </trkpt>
      <trkpt lat="44.12560000" lon="5.488920000">
        <ele>923.00000</ele>
        <time>2011-01-22T13:17:18Z</time>
      </trkpt>
      <trkpt lat="44.12520000" lon="5.489610000">
        <ele>920.00000</ele>
        <time>2011-01-22T13:17:43Z</time>
      </trkpt>
      <trkpt lat="44.12443000" lon="5.490770000">
        <ele>916.00000</ele>
        <time>2011-01-22T13:18:29Z</time>
      </trkpt>
      <trkpt lat="44.12437000" lon="5.491000000">
        <ele>916.00000</ele>
        <time>2011-01-22T13:18:36Z</time>
      </trkpt>
      <trkpt lat="44.12433000" lon="5.492420000">
        <ele>920.00000</ele>
        <time>2011-01-22T13:19:16Z</time>
      </trkpt>
      <trkpt lat="44.12422000" lon="5.493230000">
        <ele>921.00000</ele>
        <time>2011-01-22T13:19:40Z</time>
      </trkpt>
      <trkpt lat="44.12394000" lon="5.494170000">
        <ele>923.00000</ele>
        <time>2011-01-22T13:20:09Z</time>
      </trkpt>
      <trkpt lat="44.12373000" lon="5.494540000">
        <ele>918.00000</ele>
        <time>2011-01-22T13:20:23Z</time>
      </trkpt>
      <trkpt lat="44.12331000" lon="5.494740000">
        <ele>918.00000</ele>
        <time>2011-01-22T13:20:41Z</time>
      </trkpt>
      <trkpt lat="44.12102000" lon="5.495270000">
        <ele>916.00000</ele>
        <time>2011-01-22T13:22:14Z</time>
      </trkpt>
      <trkpt lat="44.12010000" lon="5.494950000">
        <ele>916.00000</ele>
        <time>2011-01-22T13:22:52Z</time>
      </trkpt>
      <trkpt lat="44.11934000" lon="5.494620000">
        <ele>917.00000</ele>
        <time>2011-01-22T13:23:23Z</time>
      </trkpt>
      <trkpt lat="44.11898000" lon="5.494250000">
        <ele>912.00000</ele>
        <time>2011-01-22T13:23:41Z</time>
      </trkpt>
      <trkpt lat="44.11861000" lon="5.493650000">
        <ele>910.00000</ele>
        <time>2011-01-22T13:24:04Z</time>
      </trkpt>
      <trkpt lat="44.11848000" lon="5.493570000">
        <ele>910.00000</ele>
        <time>2011-01-22T13:24:10Z</time>
      </trkpt>
      <trkpt lat="44.11844000" lon="5.493590000">
        <ele>910.00000</ele>
        <time>2011-01-22T13:24:11Z</time>
      </trkpt>
      <trkpt lat="44.11839000" lon="5.493640000">
        <ele>910.00000</ele>
        <time>2011-01-22T13:24:14Z</time>
      </trkpt>
      <trkpt lat="44.11734000" lon="5.496130000">
        <ele>919.00000</ele>
        <time>2011-01-22T13:25:37Z</time>
      </trkpt>
      <trkpt lat="44.11637000" lon="5.497880000">
        <ele>921.00000</ele>
        <time>2011-01-22T13:26:40Z</time>
      </trkpt>
      <trkpt lat="44.11594000" lon="5.499280000">
        <ele>923.00000</ele>
        <time>2011-01-22T13:27:24Z</time>
      </trkpt>
      <trkpt lat="44.11561000" lon="5.500010000">
        <ele>925.00000</ele>
        <time>2011-01-22T13:27:49Z</time>
      </trkpt>
      <trkpt lat="44.11337000" lon="5.504020000">
        <ele>925.00000</ele>
        <time>2011-01-22T13:30:15Z</time>
      </trkpt>
      <trkpt lat="44.11325000" lon="5.504310000">
        <ele>925.00000</ele>
        <time>2011-01-22T13:30:25Z</time>
      </trkpt>
      <trkpt lat="44.11262000" lon="5.506350000">
        <ele>928.00000</ele>
        <time>2011-01-22T13:31:28Z</time>
      </trkpt>
      <trkpt lat="44.11131000" lon="5.509920000">
        <ele>929.00000</ele>
        <time>2011-01-22T13:33:24Z</time>
      </trkpt>
      <trkpt lat="44.11094000" lon="5.510830000">
        <ele>925.00000</ele>
        <time>2011-01-22T13:33:54Z</time>
      </trkpt>
      <trkpt lat="44.10985000" lon="5.512320000">
        <ele>923.00000</ele>
        <time>2011-01-22T13:34:55Z</time>
      </trkpt>
      <trkpt lat="44.10853000" lon="5.513070000">
        <ele>922.00000</ele>
        <time>2011-01-22T13:35:52Z</time>
      </trkpt>
      <trkpt lat="44.10796000" lon="5.513450000">
        <ele>922.00000</ele>
        <time>2011-01-22T13:36:17Z</time>
      </trkpt>
      <trkpt lat="44.10717000" lon="5.514170000">
        <ele>921.00000</ele>
        <time>2011-01-22T13:36:55Z</time>
      </trkpt>
      <trkpt lat="44.10698000" lon="5.514420000">
        <ele>919.00000</ele>
        <time>2011-01-22T13:37:05Z</time>
      </trkpt>
      <trkpt lat="44.10521000" lon="5.517570000">
        <ele>920.00000</ele>
        <time>2011-01-22T13:39:00Z</time>
      </trkpt>
      <trkpt lat="44.10226000" lon="5.521490000">
        <ele>918.00000</ele>
        <time>2011-01-22T13:41:44Z</time>
      </trkpt>
      <trkpt lat="44.10163000" lon="5.522300000">
        <ele>916.00000</ele>
        <time>2011-01-22T13:42:18Z</time>
      </trkpt>
      <trkpt lat="44.10146000" lon="5.522420000">
        <ele>916.00000</ele>
        <time>2011-01-22T13:42:26Z</time>
      </trkpt>
      <trkpt lat="44.10128000" lon="5.522460000">
        <ele>916.00000</ele>
        <time>2011-01-22T13:42:33Z</time>
      </trkpt>
      <trkpt lat="44.10089000" lon="5.522920000">
        <ele>913.00000</ele>
        <time>2011-01-22T13:42:53Z</time>
      </trkpt>
      <trkpt lat="44.10072000" lon="5.523260000">
        <ele>913.00000</ele>
        <time>2011-01-22T13:43:05Z</time>
      </trkpt>
      <trkpt lat="44.09996000" lon="5.525430000">
        <ele>907.00000</ele>
        <time>2011-01-22T13:44:15Z</time>
      </trkpt>
      <trkpt lat="44.09973000" lon="5.526310000">
        <ele>908.00000</ele>
        <time>2011-01-22T13:44:42Z</time>
      </trkpt>
      <trkpt lat="44.09960000" lon="5.526570000">
        <ele>908.00000</ele>
        <time>2011-01-22T13:44:51Z</time>
      </trkpt>
      <trkpt lat="44.09468000" lon="5.530100000">
        <ele>910.00000</ele>
        <time>2011-01-22T13:48:32Z</time>
      </trkpt>
      <trkpt lat="44.09429000" lon="5.530550000">
        <ele>908.00000</ele>
        <time>2011-01-22T13:48:53Z</time>
      </trkpt>
      <trkpt lat="44.09350000" lon="5.531730000">
        <ele>905.00000</ele>
        <time>2011-01-22T13:49:39Z</time>
      </trkpt>
      <trkpt lat="44.09265000" lon="5.532300000">
        <ele>904.00000</ele>
        <time>2011-01-22T13:50:17Z</time>
      </trkpt>
      <trkpt lat="44.09237000" lon="5.532550000">
        <ele>904.00000</ele>
        <time>2011-01-22T13:50:30Z</time>
      </trkpt>
      <trkpt lat="44.09208000" lon="5.532910000">
        <ele>900.00000</ele>
        <time>2011-01-22T13:50:46Z</time>
      </trkpt>
      <trkpt lat="44.09160000" lon="5.533640000">
        <ele>901.00000</ele>
        <time>2011-01-22T13:51:14Z</time>
      </trkpt>
      <trkpt lat="44.09113000" lon="5.534090000">
        <ele>900.00000</ele>
        <time>2011-01-22T13:51:37Z</time>
      </trkpt>
      <trkpt lat="44.09052000" lon="5.534530000">
        <ele>900.00000</ele>
        <time>2011-01-22T13:52:04Z</time>
      </trkpt>
      <trkpt lat="44.09026000" lon="5.534640000">
        <ele>903.00000</ele>
        <time>2011-01-22T13:52:15Z</time>
      </trkpt>
      <trkpt lat="44.08943000" lon="5.534660000">
        <ele>901.00000</ele>
        <time>2011-01-22T13:52:48Z</time>
      </trkpt>
      <trkpt lat="44.08904000" lon="5.534730000">
        <ele>901.00000</ele>
        <time>2011-01-22T13:53:04Z</time>
      </trkpt>
      <trkpt lat="44.08631000" lon="5.536900000">
        <ele>900.00000</ele>
        <time>2011-01-22T13:55:10Z</time>
      </trkpt>
      <trkpt lat="44.08607000" lon="5.537140000">
        <ele>900.00000</ele>
        <time>2011-01-22T13:55:22Z</time>
      </trkpt>
      <trkpt lat="44.08600000" lon="5.537290000">
        <ele>900.00000</ele>
        <time>2011-01-22T13:55:27Z</time>
      </trkpt>
      <trkpt lat="44.08556000" lon="5.538560000">
        <ele>900.00000</ele>
        <time>2011-01-22T13:56:08Z</time>
      </trkpt>
      <trkpt lat="44.08543000" lon="5.538820000">
        <ele>900.00000</ele>
        <time>2011-01-22T13:56:17Z</time>
      </trkpt>
      <trkpt lat="44.08440000" lon="5.539510000">
        <ele>896.00000</ele>
        <time>2011-01-22T13:57:02Z</time>
      </trkpt>
      <trkpt lat="44.08414000" lon="5.539750000">
        <ele>897.00000</ele>
        <time>2011-01-22T13:57:15Z</time>
      </trkpt>
      <trkpt lat="44.08376000" lon="5.540180000">
        <ele>897.00000</ele>
        <time>2011-01-22T13:57:35Z</time>
      </trkpt>
      <trkpt lat="44.08313000" lon="5.541210000">
        <ele>897.00000</ele>
        <time>2011-01-22T13:58:13Z</time>
      </trkpt>
      <trkpt lat="44.08276000" lon="5.541580000">
        <ele>903.00000</ele>
        <time>2011-01-22T13:58:32Z</time>
      </trkpt>
      <trkpt lat="44.08233000" lon="5.541790000">
        <ele>903.00000</ele>
        <time>2011-01-22T13:58:50Z</time>
      </trkpt>
      <trkpt lat="44.08220000" lon="5.541900000">
        <ele>903.00000</ele>
        <time>2011-01-22T13:58:56Z</time>
      </trkpt>
      <trkpt lat="44.08206000" lon="5.542080000">
        <ele>908.00000</ele>
        <time>2011-01-22T13:59:04Z</time>
      </trkpt>
      <trkpt lat="44.08193000" lon="5.542350000">
        <ele>911.00000</ele>
        <time>2011-01-22T13:59:13Z</time>
      </trkpt>
      <trkpt lat="44.08180000" lon="5.542740000">
        <ele>911.00000</ele>
        <time>2011-01-22T13:59:25Z</time>
      </trkpt>
      <trkpt lat="44.08182000" lon="5.543200000">
        <ele>915.00000</ele>
        <time>2011-01-22T13:59:39Z</time>
      </trkpt>
      <trkpt lat="44.08271000" lon="5.545220000">
        <ele>919.00000</ele>
        <time>2011-01-22T14:00:47Z</time>
      </trkpt>
      <trkpt lat="44.08338000" lon="5.546590000">
        <ele>920.00000</ele>
        <time>2011-01-22T14:01:34Z</time>
      </trkpt>
      <trkpt lat="44.08341000" lon="5.546890000">
        <ele>920.00000</ele>
        <time>2011-01-22T14:01:43Z</time>
      </trkpt>
      <trkpt lat="44.08333000" lon="5.547700000">
        <ele>920.00000</ele>
        <time>2011-01-22T14:02:07Z</time>
      </trkpt>
      <trkpt lat="44.08335000" lon="5.548690000">
        <ele>920.00000</ele>
        <time>2011-01-22T14:02:35Z</time>
      </trkpt>
      <trkpt lat="44.08328000" lon="5.549150000">
        <ele>920.00000</ele>
        <time>2011-01-22T14:02:49Z</time>
      </trkpt>
      <trkpt lat="44.08314000" lon="5.549400000">
        <ele>920.00000</ele>
        <time>2011-01-22T14:02:58Z</time>
      </trkpt>
      <trkpt lat="44.08223000" lon="5.550190000">
        <ele>920.00000</ele>
        <time>2011-01-22T14:03:41Z</time>
      </trkpt>
      <trkpt lat="44.08177000" lon="5.550740000">
        <ele>920.00000</ele>
        <time>2011-01-22T14:04:05Z</time>
      </trkpt>
      <trkpt lat="44.08132000" lon="5.550710000">
        <ele>920.00000</ele>
        <time>2011-01-22T14:04:23Z</time>
      </trkpt>
      <trkpt lat="44.08105000" lon="5.550600000">
        <ele>920.00000</ele>
        <time>2011-01-22T14:04:34Z</time>
      </trkpt>
      <trkpt lat="44.08086000" lon="5.550580000">
        <ele>920.00000</ele>
        <time>2011-01-22T14:04:42Z</time>
      </trkpt>
      <trkpt lat="44.08066000" lon="5.550440000">
        <ele>920.00000</ele>
        <time>2011-01-22T14:04:51Z</time>
      </trkpt>
      <trkpt lat="44.07935000" lon="5.548240000">
        <ele>920.00000</ele>
        <time>2011-01-22T14:06:13Z</time>
      </trkpt>
      <trkpt lat="44.07813000" lon="5.548110000">
        <ele>920.00000</ele>
        <time>2011-01-22T14:07:02Z</time>
      </trkpt>
      <trkpt lat="44.07774000" lon="5.548000000">
        <ele>919.00000</ele>
        <time>2011-01-22T14:07:18Z</time>
      </trkpt>
      <trkpt lat="44.07744000" lon="5.547800000">
        <ele>917.00000</ele>
        <time>2011-01-22T14:07:31Z</time>
      </trkpt>
      <trkpt lat="44.07576000" lon="5.546340000">
        <ele>907.00000</ele>
        <time>2011-01-22T14:08:50Z</time>
      </trkpt>
      <trkpt lat="44.07549000" lon="5.546180000">
        <ele>904.00000</ele>
        <time>2011-01-22T14:09:02Z</time>
      </trkpt>
      <trkpt lat="44.07515000" lon="5.546030000">
        <ele>906.00000</ele>
        <time>2011-01-22T14:09:17Z</time>
      </trkpt>
      <trkpt lat="44.07395000" lon="5.545820000">
        <ele>907.00000</ele>
        <time>2011-01-22T14:10:05Z</time>
      </trkpt>
      <trkpt lat="44.07176000" lon="5.545250000">
        <ele>900.00000</ele>
        <time>2011-01-22T14:11:34Z</time>
      </trkpt>
      <trkpt lat="44.07003000" lon="5.544940000">
        <ele>890.00000</ele>
        <time>2011-01-22T14:12:44Z</time>
      </trkpt>
      <trkpt lat="44.06788000" lon="5.544640000">
        <ele>900.00000</ele>
        <time>2011-01-22T14:14:10Z</time>
      </trkpt>
      <trkpt lat="44.06615000" lon="5.544530000">
        <ele>900.00000</ele>
        <time>2011-01-22T14:15:20Z</time>
      </trkpt>
      <trkpt lat="44.06575000" lon="5.544330000">
        <ele>900.00000</ele>
        <time>2011-01-22T14:15:37Z</time>
      </trkpt>
      <trkpt lat="44.06440000" lon="5.543380000">
        <ele>888.00000</ele>
        <time>2011-01-22T14:16:37Z</time>
      </trkpt>
      <trkpt lat="44.06408000" lon="5.543200000">
        <ele>888.00000</ele>
        <time>2011-01-22T14:16:51Z</time>
      </trkpt>
      <trkpt lat="44.06346000" lon="5.542900000">
        <ele>880.00000</ele>
        <time>2011-01-22T14:17:17Z</time>
      </trkpt>
      <trkpt lat="44.06252000" lon="5.542710000">
        <ele>880.00000</ele>
        <time>2011-01-22T14:17:55Z</time>
      </trkpt>
      <trkpt lat="44.06138000" lon="5.542730000">
        <ele>880.00000</ele>
        <time>2011-01-22T14:18:41Z</time>
      </trkpt>
      <trkpt lat="44.06045000" lon="5.542920000">
        <ele>880.00000</ele>
        <time>2011-01-22T14:19:19Z</time>
      </trkpt>
      <trkpt lat="44.05921000" lon="5.543320000">
        <ele>880.00000</ele>
        <time>2011-01-22T14:20:10Z</time>
      </trkpt>
      <trkpt lat="44.05698000" lon="5.543940000">
        <ele>880.00000</ele>
        <time>2011-01-22T14:21:41Z</time>
      </trkpt>
      <trkpt lat="44.05570000" lon="5.544000000">
        <ele>880.00000</ele>
        <time>2011-01-22T14:22:32Z</time>
      </trkpt>
      <trkpt lat="44.05512000" lon="5.544110000">
        <ele>880.00000</ele>
        <time>2011-01-22T14:22:55Z</time>
      </trkpt>
      <trkpt lat="44.05445000" lon="5.544350000">
        <ele>878.00000</ele>
        <time>2011-01-22T14:23:23Z</time>
      </trkpt>
      <trkpt lat="44.05367000" lon="5.544880000">
        <ele>876.00000</ele>
        <time>2011-01-22T14:23:58Z</time>
      </trkpt>
      <trkpt lat="44.05332000" lon="5.545000000">
        <ele>876.00000</ele>
        <time>2011-01-22T14:24:12Z</time>
      </trkpt>
      <trkpt lat="44.04976000" lon="5.545540000">
        <ele>862.00000</ele>
        <time>2011-01-22T14:26:36Z</time>
      </trkpt>
      <trkpt lat="44.04905000" lon="5.545340000">
        <ele>861.00000</ele>
        <time>2011-01-22T14:27:05Z</time>
      </trkpt>
      <trkpt lat="44.04666000" lon="5.544460000">
        <ele>860.00000</ele>
        <time>2011-01-22T14:28:44Z</time>
      </trkpt>
      <trkpt lat="44.04625000" lon="5.544430000">
        <ele>860.00000</ele>
        <time>2011-01-22T14:29:00Z</time>
      </trkpt>
      <trkpt lat="44.04524000" lon="5.544510000">
        <ele>860.00000</ele>
        <time>2011-01-22T14:29:41Z</time>
      </trkpt>
      <trkpt lat="44.04432000" lon="5.544480000">
        <ele>860.00000</ele>
        <time>2011-01-22T14:30:17Z</time>
      </trkpt>
      <trkpt lat="44.03866000" lon="5.544110000">
        <ele>860.00000</ele>
        <time>2011-01-22T14:34:04Z</time>
      </trkpt>
      <trkpt lat="44.03791000" lon="5.544020000">
        <ele>860.00000</ele>
        <time>2011-01-22T14:34:34Z</time>
      </trkpt>
      <trkpt lat="44.03686000" lon="5.543770000">
        <ele>860.00000</ele>
        <time>2011-01-22T14:35:17Z</time>
      </trkpt>
      <trkpt lat="44.03642000" lon="5.543730000">
        <ele>860.00000</ele>
        <time>2011-01-22T14:35:35Z</time>
      </trkpt>
      <trkpt lat="44.03621000" lon="5.543740000">
        <ele>858.00000</ele>
        <time>2011-01-22T14:35:43Z</time>
      </trkpt>
      <trkpt lat="44.03320000" lon="5.544460000">
        <ele>844.00000</ele>
        <time>2011-01-22T14:37:45Z</time>
      </trkpt>
      <trkpt lat="44.03290000" lon="5.544380000">
        <ele>840.00000</ele>
        <time>2011-01-22T14:37:57Z</time>
      </trkpt>
      <trkpt lat="44.03138000" lon="5.543600000">
        <ele>843.00000</ele>
        <time>2011-01-22T14:39:02Z</time>
      </trkpt>
      <trkpt lat="44.03028000" lon="5.543570000">
        <ele>845.00000</ele>
        <time>2011-01-22T14:39:46Z</time>
      </trkpt>
      <trkpt lat="44.02600000" lon="5.543690000">
        <ele>843.00000</ele>
        <time>2011-01-22T14:42:38Z</time>
      </trkpt>
      <trkpt lat="44.02566000" lon="5.543560000">
        <ele>843.00000</ele>
        <time>2011-01-22T14:42:52Z</time>
      </trkpt>
      <trkpt lat="44.02524000" lon="5.543310000">
        <ele>843.00000</ele>
        <time>2011-01-22T14:43:10Z</time>
      </trkpt>
      <trkpt lat="44.02383000" lon="5.542380000">
        <ele>845.00000</ele>
        <time>2011-01-22T14:44:13Z</time>
      </trkpt>
      <trkpt lat="44.02249000" lon="5.541750000">
        <ele>849.00000</ele>
        <time>2011-01-22T14:45:09Z</time>
      </trkpt>
      <trkpt lat="44.02170000" lon="5.541090000">
        <ele>840.00000</ele>
        <time>2011-01-22T14:45:46Z</time>
      </trkpt>
      <trkpt lat="44.02105000" lon="5.540410000">
        <ele>840.00000</ele>
        <time>2011-01-22T14:46:19Z</time>
      </trkpt>
      <trkpt lat="44.01945000" lon="5.539840000">
        <ele>840.00000</ele>
        <time>2011-01-22T14:47:25Z</time>
      </trkpt>
      <trkpt lat="44.01922000" lon="5.539650000">
        <ele>840.00000</ele>
        <time>2011-01-22T14:47:36Z</time>
      </trkpt>
      <trkpt lat="44.01873000" lon="5.539060000">
        <ele>840.00000</ele>
        <time>2011-01-22T14:48:01Z</time>
      </trkpt>
      <trkpt lat="44.01777000" lon="5.538280000">
        <ele>840.00000</ele>
        <time>2011-01-22T14:48:46Z</time>
      </trkpt>
      <trkpt lat="44.01361000" lon="5.535830000">
        <ele>847.00000</ele>
        <time>2011-01-22T14:51:47Z</time>
      </trkpt>
      <trkpt lat="44.01312000" lon="5.535730000">
        <ele>847.00000</ele>
        <time>2011-01-22T14:52:07Z</time>
      </trkpt>
      <trkpt lat="44.01270000" lon="5.535740000">
        <ele>849.00000</ele>
        <time>2011-01-22T14:52:23Z</time>
      </trkpt>
      <trkpt lat="44.01118000" lon="5.536040000">
        <ele>844.00000</ele>
        <time>2011-01-22T14:53:25Z</time>
      </trkpt>
      <trkpt lat="44.00961000" lon="5.536210000">
        <ele>841.00000</ele>
        <time>2011-01-22T14:54:28Z</time>
      </trkpt>
      <trkpt lat="44.01042000" lon="5.534940000">
        <ele>846.00000</ele>
        <time>2011-01-22T14:55:17Z</time>
      </trkpt>
      <trkpt lat="44.01073000" lon="5.534260000">
        <ele>847.00000</ele>
        <time>2011-01-22T14:55:40Z</time>
      </trkpt>
      <trkpt lat="44.01123000" lon="5.533480000">
        <ele>849.00000</ele>
        <time>2011-01-22T14:56:10Z</time>
      </trkpt>
      <trkpt lat="44.01167000" lon="5.532800000">
        <ele>850.00000</ele>
        <time>2011-01-22T14:56:36Z</time>
      </trkpt>
      <trkpt lat="44.01441000" lon="5.529540000">
        <ele>840.00000</ele>
        <time>2011-01-22T14:59:01Z</time>
      </trkpt>
      <trkpt lat="44.01465000" lon="5.529170000">
        <ele>840.00000</ele>
        <time>2011-01-22T14:59:15Z</time>
      </trkpt>
      <trkpt lat="44.01670000" lon="5.523540000">
        <ele>840.00000</ele>
        <time>2011-01-22T15:02:17Z</time>
      </trkpt>
      <trkpt lat="44.01692000" lon="5.522570000">
        <ele>850.00000</ele>
        <time>2011-01-22T15:02:46Z</time>
      </trkpt>
      <trkpt lat="44.01704000" lon="5.521160000">
        <ele>854.00000</ele>
        <time>2011-01-22T15:03:27Z</time>
      </trkpt>
      <trkpt lat="44.01707000" lon="5.520960000">
        <ele>854.00000</ele>
        <time>2011-01-22T15:03:33Z</time>
      </trkpt>
      <trkpt lat="44.01717000" lon="5.520710000">
        <ele>862.00000</ele>
        <time>2011-01-22T15:03:41Z</time>
      </trkpt>
      <trkpt lat="44.01891000" lon="5.517720000">
        <ele>843.00000</ele>
        <time>2011-01-22T15:05:32Z</time>
      </trkpt>
      <trkpt lat="44.02040000" lon="5.514870000">
        <ele>840.00000</ele>
        <time>2011-01-22T15:07:13Z</time>
      </trkpt>
      <trkpt lat="44.02208000" lon="5.512050000">
        <ele>840.00000</ele>
        <time>2011-01-22T15:08:59Z</time>
      </trkpt>
      <trkpt lat="44.02216000" lon="5.511770000">
        <ele>840.00000</ele>
        <time>2011-01-22T15:09:07Z</time>
      </trkpt>
      <trkpt lat="44.02261000" lon="5.508880000">
        <ele>840.00000</ele>
        <time>2011-01-22T15:10:32Z</time>
      </trkpt>
      <trkpt lat="44.02292000" lon="5.507840000">
        <ele>841.00000</ele>
        <time>2011-01-22T15:11:05Z</time>
      </trkpt>
      <trkpt lat="44.02293000" lon="5.507640000">
        <ele>841.00000</ele>
        <time>2011-01-22T15:11:11Z</time>
      </trkpt>
      <trkpt lat="44.02288000" lon="5.506960000">
        <ele>845.00000</ele>
        <time>2011-01-22T15:11:30Z</time>
      </trkpt>
      <trkpt lat="44.02301000" lon="5.506670000">
        <ele>843.00000</ele>
        <time>2011-01-22T15:11:40Z</time>
      </trkpt>
      <trkpt lat="44.02580000" lon="5.501880000">
        <ele>846.00000</ele>
        <time>2011-01-22T15:14:38Z</time>
      </trkpt>
      <trkpt lat="44.02635000" lon="5.500310000">
        <ele>849.00000</ele>
        <time>2011-01-22T15:15:28Z</time>
      </trkpt>
      <trkpt lat="44.02677000" lon="5.499700000">
        <ele>849.00000</ele>
        <time>2011-01-22T15:15:52Z</time>
      </trkpt>
      <trkpt lat="44.02701000" lon="5.498950000">
        <ele>851.00000</ele>
        <time>2011-01-22T15:16:16Z</time>
      </trkpt>
      <trkpt lat="44.02714000" lon="5.497990000">
        <ele>848.00000</ele>
        <time>2011-01-22T15:16:44Z</time>
      </trkpt>
      <trkpt lat="44.02725000" lon="5.496960000">
        <ele>850.00000</ele>
        <time>2011-01-22T15:17:14Z</time>
      </trkpt>
      <trkpt lat="44.02729000" lon="5.495600000">
        <ele>851.00000</ele>
        <time>2011-01-22T15:17:53Z</time>
      </trkpt>
      <trkpt lat="44.02749000" lon="5.495300000">
        <ele>853.00000</ele>
        <time>2011-01-22T15:18:05Z</time>
      </trkpt>
      <trkpt lat="44.02668000" lon="5.494690000">
        <ele>858.00000</ele>
        <time>2011-01-22T15:18:42Z</time>
      </trkpt>
      <trkpt lat="44.02642000" lon="5.494270000">
        <ele>860.00000</ele>
        <time>2011-01-22T15:18:58Z</time>
      </trkpt>
      <trkpt lat="44.02600000" lon="5.493080000">
        <ele>869.00000</ele>
        <time>2011-01-22T15:19:36Z</time>
      </trkpt>
      <trkpt lat="44.02581000" lon="5.492210000">
        <ele>873.00000</ele>
        <time>2011-01-22T15:20:02Z</time>
      </trkpt>
      <trkpt lat="44.02575000" lon="5.489970000">
        <ele>886.00000</ele>
        <time>2011-01-22T15:21:06Z</time>
      </trkpt>
      <trkpt lat="44.02582000" lon="5.488930000">
        <ele>890.00000</ele>
        <time>2011-01-22T15:21:37Z</time>
      </trkpt>
      <trkpt lat="44.02586000" lon="5.487390000">
        <ele>897.00000</ele>
        <time>2011-01-22T15:22:21Z</time>
      </trkpt>
      <trkpt lat="44.02581000" lon="5.486930000">
        <ele>897.00000</ele>
        <time>2011-01-22T15:22:34Z</time>
      </trkpt>
      <trkpt lat="44.02568000" lon="5.486480000">
        <ele>897.00000</ele>
        <time>2011-01-22T15:22:48Z</time>
      </trkpt>
      <trkpt lat="44.02546000" lon="5.486050000">
        <ele>894.00000</ele>
        <time>2011-01-22T15:23:03Z</time>
      </trkpt>
      <trkpt lat="44.02499000" lon="5.485480000">
        <ele>902.00000</ele>
        <time>2011-01-22T15:23:28Z</time>
      </trkpt>
      <trkpt lat="44.02456000" lon="5.485370000">
        <ele>913.00000</ele>
        <time>2011-01-22T15:23:46Z</time>
      </trkpt>
      <trkpt lat="44.02370000" lon="5.485460000">
        <ele>917.00000</ele>
        <time>2011-01-22T15:24:20Z</time>
      </trkpt>
      <trkpt lat="44.02352000" lon="5.485360000">
        <ele>922.00000</ele>
        <time>2011-01-22T15:24:28Z</time>
      </trkpt>
      <trkpt lat="44.02344000" lon="5.485180000">
        <ele>922.00000</ele>
        <time>2011-01-22T15:24:34Z</time>
      </trkpt>
      <trkpt lat="44.02343000" lon="5.485030000">
        <ele>922.00000</ele>
        <time>2011-01-22T15:24:39Z</time>
      </trkpt>
      <trkpt lat="44.02348000" lon="5.484770000">
        <ele>922.00000</ele>
        <time>2011-01-22T15:24:46Z</time>
      </trkpt>
      <trkpt lat="44.02369000" lon="5.484060000">
        <ele>928.00000</ele>
        <time>2011-01-22T15:25:08Z</time>
      </trkpt>
      <trkpt lat="44.02374000" lon="5.483580000">
        <ele>933.00000</ele>
        <time>2011-01-22T15:25:22Z</time>
      </trkpt>
      <trkpt lat="44.02350000" lon="5.482430000">
        <ele>939.00000</ele>
        <time>2011-01-22T15:25:57Z</time>
      </trkpt>
      <trkpt lat="44.02348000" lon="5.481970000">
        <ele>945.00000</ele>
        <time>2011-01-22T15:26:10Z</time>
      </trkpt>
      <trkpt lat="44.02356000" lon="5.481590000">
        <ele>945.00000</ele>
        <time>2011-01-22T15:26:22Z</time>
      </trkpt>
      <trkpt lat="44.02386000" lon="5.481250000">
        <ele>940.00000</ele>
        <time>2011-01-22T15:26:37Z</time>
      </trkpt>
      <trkpt lat="44.02417000" lon="5.480800000">
        <ele>940.00000</ele>
        <time>2011-01-22T15:26:55Z</time>
      </trkpt>
      <trkpt lat="44.02433000" lon="5.480450000">
        <ele>940.00000</ele>
        <time>2011-01-22T15:27:07Z</time>
      </trkpt>
      <trkpt lat="44.02438000" lon="5.480150000">
        <ele>945.00000</ele>
        <time>2011-01-22T15:27:16Z</time>
      </trkpt>
      <trkpt lat="44.02438000" lon="5.479910000">
        <ele>945.00000</ele>
        <time>2011-01-22T15:27:23Z</time>
      </trkpt>
      <trkpt lat="44.02431000" lon="5.479650000">
        <ele>945.00000</ele>
        <time>2011-01-22T15:27:31Z</time>
      </trkpt>
      <trkpt lat="44.02397000" lon="5.478860000">
        <ele>949.00000</ele>
        <time>2011-01-22T15:27:57Z</time>
      </trkpt>
      <trkpt lat="44.02388000" lon="5.478440000">
        <ele>955.00000</ele>
        <time>2011-01-22T15:28:10Z</time>
      </trkpt>
      <trkpt lat="44.02391000" lon="5.478030000">
        <ele>955.00000</ele>
        <time>2011-01-22T15:28:22Z</time>
      </trkpt>
      <trkpt lat="44.02405000" lon="5.477850000">
        <ele>961.00000</ele>
        <time>2011-01-22T15:28:29Z</time>
      </trkpt>
      <trkpt lat="44.02472000" lon="5.477690000">
        <ele>949.00000</ele>
        <time>2011-01-22T15:28:56Z</time>
      </trkpt>
      <trkpt lat="44.02499000" lon="5.477540000">
        <ele>949.00000</ele>
        <time>2011-01-22T15:29:08Z</time>
      </trkpt>
      <trkpt lat="44.02516000" lon="5.477210000">
        <ele>949.00000</ele>
        <time>2011-01-22T15:29:20Z</time>
      </trkpt>
      <trkpt lat="44.02542000" lon="5.476410000">
        <ele>954.00000</ele>
        <time>2011-01-22T15:29:45Z</time>
      </trkpt>
      <trkpt lat="44.02586000" lon="5.474580000">
        <ele>983.00000</ele>
        <time>2011-01-22T15:30:41Z</time>
      </trkpt>
      <trkpt lat="44.02626000" lon="5.473870000">
        <ele>969.00000</ele>
        <time>2011-01-22T15:31:07Z</time>
      </trkpt>
      <trkpt lat="44.02640000" lon="5.473480000">
        <ele>979.00000</ele>
        <time>2011-01-22T15:31:19Z</time>
      </trkpt>
      <trkpt lat="44.02678000" lon="5.471810000">
        <ele>992.00000</ele>
        <time>2011-01-22T15:32:10Z</time>
      </trkpt>
      <trkpt lat="44.02691000" lon="5.471440000">
        <ele>992.00000</ele>
        <time>2011-01-22T15:32:21Z</time>
      </trkpt>
      <trkpt lat="44.02714000" lon="5.471040000">
        <ele>989.00000</ele>
        <time>2011-01-22T15:32:36Z</time>
      </trkpt>
      <trkpt lat="44.02768000" lon="5.470470000">
        <ele>989.00000</ele>
        <time>2011-01-22T15:33:03Z</time>
      </trkpt>
      <trkpt lat="44.02806000" lon="5.469990000">
        <ele>990.00000</ele>
        <time>2011-01-22T15:33:24Z</time>
      </trkpt>
      <trkpt lat="44.02841000" lon="5.469450000">
        <ele>998.00000</ele>
        <time>2011-01-22T15:33:45Z</time>
      </trkpt>
      <trkpt lat="44.02871000" lon="5.468500000">
        <ele>1000.0000</ele>
        <time>2011-01-22T15:34:15Z</time>
      </trkpt>
      <trkpt lat="44.02890000" lon="5.468060000">
        <ele>998.00000</ele>
        <time>2011-01-22T15:34:29Z</time>
      </trkpt>
      <trkpt lat="44.02911000" lon="5.467780000">
        <ele>1001.0000</ele>
        <time>2011-01-22T15:34:41Z</time>
      </trkpt>
      <trkpt lat="44.02952000" lon="5.467610000">
        <ele>1001.0000</ele>
        <time>2011-01-22T15:34:58Z</time>
      </trkpt>
      <trkpt lat="44.02962000" lon="5.467480000">
        <ele>1000.0000</ele>
        <time>2011-01-22T15:35:04Z</time>
      </trkpt>
      <trkpt lat="44.02967000" lon="5.467250000">
        <ele>1000.0000</ele>
        <time>2011-01-22T15:35:11Z</time>
      </trkpt>
      <trkpt lat="44.02961000" lon="5.467000000">
        <ele>1004.0000</ele>
        <time>2011-01-22T15:35:18Z</time>
      </trkpt>
      <trkpt lat="44.02948000" lon="5.466900000">
        <ele>1002.0000</ele>
        <time>2011-01-22T15:35:24Z</time>
      </trkpt>
      <trkpt lat="44.02920000" lon="5.466920000">
        <ele>1002.0000</ele>
        <time>2011-01-22T15:35:35Z</time>
      </trkpt>
      <trkpt lat="44.02862000" lon="5.467080000">
        <ele>1001.0000</ele>
        <time>2011-01-22T15:35:59Z</time>
      </trkpt>
      <trkpt lat="44.02843000" lon="5.466340000">
        <ele>1001.0000</ele>
        <time>2011-01-22T15:36:22Z</time>
      </trkpt>
      <trkpt lat="44.02829000" lon="5.465350000">
        <ele>1001.0000</ele>
        <time>2011-01-22T15:36:51Z</time>
      </trkpt>
      <trkpt lat="44.02824000" lon="5.464700000">
        <ele>1001.0000</ele>
        <time>2011-01-22T15:37:09Z</time>
      </trkpt>
      <trkpt lat="44.02828000" lon="5.463760000">
        <ele>1001.0000</ele>
        <time>2011-01-22T15:37:37Z</time>
      </trkpt>
      <trkpt lat="44.02838000" lon="5.463280000">
        <ele>1000.0000</ele>
        <time>2011-01-22T15:37:51Z</time>
      </trkpt>
      <trkpt lat="44.02859000" lon="5.462630000">
        <ele>1000.0000</ele>
        <time>2011-01-22T15:38:11Z</time>
      </trkpt>
      <trkpt lat="44.02963000" lon="5.460610000">
        <ele>1000.0000</ele>
        <time>2011-01-22T15:39:23Z</time>
      </trkpt>
      <trkpt lat="44.03052000" lon="5.459140000">
        <ele>1000.0000</ele>
        <time>2011-01-22T15:40:18Z</time>
      </trkpt>
      <trkpt lat="44.03134000" lon="5.458020000">
        <ele>1000.0000</ele>
        <time>2011-01-22T15:41:04Z</time>
      </trkpt>
      <trkpt lat="44.03205000" lon="5.457250000">
        <ele>1000.0000</ele>
        <time>2011-01-22T15:41:40Z</time>
      </trkpt>
      <trkpt lat="44.03606000" lon="5.453350000">
        <ele>1006.0000</ele>
        <time>2011-01-22T15:44:56Z</time>
      </trkpt>
      <trkpt lat="44.03900000" lon="5.450570000">
        <ele>1012.0000</ele>
        <time>2011-01-22T15:47:18Z</time>
      </trkpt>
      <trkpt lat="44.03972000" lon="5.449800000">
        <ele>1012.0000</ele>
        <time>2011-01-22T15:47:55Z</time>
      </trkpt>
      <trkpt lat="44.04070000" lon="5.448590000">
        <ele>1004.0000</ele>
        <time>2011-01-22T15:48:47Z</time>
      </trkpt>
      <trkpt lat="44.04106000" lon="5.448300000">
        <ele>1004.0000</ele>
        <time>2011-01-22T15:49:04Z</time>
      </trkpt>
      <trkpt lat="44.04195000" lon="5.447820000">
        <ele>995.00000</ele>
        <time>2011-01-22T15:49:42Z</time>
      </trkpt>
      <trkpt lat="44.04282000" lon="5.446810000">
        <ele>985.00000</ele>
        <time>2011-01-22T15:50:27Z</time>
      </trkpt>
      <trkpt lat="44.04305000" lon="5.446600000">
        <ele>994.00000</ele>
        <time>2011-01-22T15:50:38Z</time>
      </trkpt>
      <trkpt lat="44.04348000" lon="5.446310000">
        <ele>994.00000</ele>
        <time>2011-01-22T15:50:58Z</time>
      </trkpt>
      <trkpt lat="44.04392000" lon="5.446150000">
        <ele>985.00000</ele>
        <time>2011-01-22T15:51:16Z</time>
      </trkpt>
      <trkpt lat="44.04452000" lon="5.445780000">
        <ele>985.00000</ele>
        <time>2011-01-22T15:51:42Z</time>
      </trkpt>
      <trkpt lat="44.04481000" lon="5.445440000">
        <ele>982.00000</ele>
        <time>2011-01-22T15:51:57Z</time>
      </trkpt>
      <trkpt lat="44.04517000" lon="5.444540000">
        <ele>958.00000</ele>
        <time>2011-01-22T15:52:27Z</time>
      </trkpt>
      <trkpt lat="44.04544000" lon="5.444200000">
        <ele>972.00000</ele>
        <time>2011-01-22T15:52:41Z</time>
      </trkpt>
      <trkpt lat="44.04711000" lon="5.443310000">
        <ele>970.00000</ele>
        <time>2011-01-22T15:53:53Z</time>
      </trkpt>
      <trkpt lat="44.04916000" lon="5.441940000">
        <ele>968.00000</ele>
        <time>2011-01-22T15:55:24Z</time>
      </trkpt>
      <trkpt lat="44.05014000" lon="5.441650000">
        <ele>970.00000</ele>
        <time>2011-01-22T15:56:04Z</time>
      </trkpt>
      <trkpt lat="44.05040000" lon="5.441520000">
        <ele>970.00000</ele>
        <time>2011-01-22T15:56:15Z</time>
      </trkpt>
      <trkpt lat="44.05239000" lon="5.440020000">
        <ele>950.00000</ele>
        <time>2011-01-22T15:57:46Z</time>
      </trkpt>
      <trkpt lat="44.05398000" lon="5.439200000">
        <ele>940.00000</ele>
        <time>2011-01-22T15:58:54Z</time>
      </trkpt>
      <trkpt lat="44.05426000" lon="5.439000000">
        <ele>940.00000</ele>
        <time>2011-01-22T15:59:06Z</time>
      </trkpt>
      <trkpt lat="44.05526000" lon="5.437940000">
        <ele>936.00000</ele>
        <time>2011-01-22T15:59:57Z</time>
      </trkpt>
      <trkpt lat="44.05775000" lon="5.435610000">
        <ele>919.00000</ele>
        <time>2011-01-22T16:01:57Z</time>
      </trkpt>
      <trkpt lat="44.05832000" lon="5.435090000">
        <ele>908.00000</ele>
        <time>2011-01-22T16:02:24Z</time>
      </trkpt>
      <trkpt lat="44.05971000" lon="5.433960000">
        <ele>900.00000</ele>
        <time>2011-01-22T16:03:29Z</time>
      </trkpt>
      <trkpt lat="44.06202000" lon="5.432310000">
        <ele>866.00000</ele>
        <time>2011-01-22T16:05:12Z</time>
      </trkpt>
      <trkpt lat="44.06421000" lon="5.430930000">
        <ele>845.00000</ele>
        <time>2011-01-22T16:06:49Z</time>
      </trkpt>
      <trkpt lat="44.06500000" lon="5.430370000">
        <ele>840.00000</ele>
        <time>2011-01-22T16:07:24Z</time>
      </trkpt>
      <trkpt lat="44.06842000" lon="5.427470000">
        <ele>828.00000</ele>
        <time>2011-01-22T16:10:05Z</time>
      </trkpt>
      <trkpt lat="44.07061000" lon="5.425810000">
        <ele>823.00000</ele>
        <time>2011-01-22T16:11:44Z</time>
      </trkpt>
      <trkpt lat="44.07159000" lon="5.425000000">
        <ele>821.00000</ele>
        <time>2011-01-22T16:12:30Z</time>
      </trkpt>
      <trkpt lat="44.07223000" lon="5.424350000">
        <ele>820.00000</ele>
        <time>2011-01-22T16:13:02Z</time>
      </trkpt>
      <trkpt lat="44.07254000" lon="5.423910000">
        <ele>820.00000</ele>
        <time>2011-01-22T16:13:19Z</time>
      </trkpt>
      <trkpt lat="44.07345000" lon="5.422380000">
        <ele>809.00000</ele>
        <time>2011-01-22T16:14:17Z</time>
      </trkpt>
      <trkpt lat="44.07422000" lon="5.421280000">
        <ele>804.00000</ele>
        <time>2011-01-22T16:15:01Z</time>
      </trkpt>
      <trkpt lat="44.07518000" lon="5.420440000">
        <ele>800.00000</ele>
        <time>2011-01-22T16:15:46Z</time>
      </trkpt>
      <trkpt lat="44.07547000" lon="5.420260000">
        <ele>798.00000</ele>
        <time>2011-01-22T16:15:59Z</time>
      </trkpt>
      <trkpt lat="44.07664000" lon="5.419860000">
        <ele>800.00000</ele>
        <time>2011-01-22T16:16:47Z</time>
      </trkpt>
      <trkpt lat="44.07843000" lon="5.418410000">
        <ele>785.00000</ele>
        <time>2011-01-22T16:18:10Z</time>
      </trkpt>
      <trkpt lat="44.08015000" lon="5.417100000">
        <ele>780.00000</ele>
        <time>2011-01-22T16:19:28Z</time>
      </trkpt>
      <trkpt lat="44.08049000" lon="5.416750000">
        <ele>780.00000</ele>
        <time>2011-01-22T16:19:45Z</time>
      </trkpt>
      <trkpt lat="44.08093000" lon="5.416200000">
        <ele>780.00000</ele>
        <time>2011-01-22T16:20:09Z</time>
      </trkpt>
      <trkpt lat="44.08149000" lon="5.415300000">
        <ele>780.00000</ele>
        <time>2011-01-22T16:20:43Z</time>
      </trkpt>
      <trkpt lat="44.08232000" lon="5.414320000">
        <ele>780.00000</ele>
        <time>2011-01-22T16:21:27Z</time>
      </trkpt>
      <trkpt lat="44.08249000" lon="5.413860000">
        <ele>780.00000</ele>
        <time>2011-01-22T16:21:42Z</time>
      </trkpt>
      <trkpt lat="44.08256000" lon="5.413310000">
        <ele>780.00000</ele>
        <time>2011-01-22T16:21:58Z</time>
      </trkpt>
      <trkpt lat="44.08269000" lon="5.412720000">
        <ele>777.00000</ele>
        <time>2011-01-22T16:22:15Z</time>
      </trkpt>
      <trkpt lat="44.08283000" lon="5.412320000">
        <ele>777.00000</ele>
        <time>2011-01-22T16:22:28Z</time>
      </trkpt>
      <trkpt lat="44.08304000" lon="5.411870000">
        <ele>775.00000</ele>
        <time>2011-01-22T16:22:44Z</time>
      </trkpt>
      <trkpt lat="44.08333000" lon="5.411410000">
        <ele>775.00000</ele>
        <time>2011-01-22T16:23:01Z</time>
      </trkpt>
      <trkpt lat="44.08398000" lon="5.410630000">
        <ele>763.00000</ele>
        <time>2011-01-22T16:23:36Z</time>
      </trkpt>
      <trkpt lat="44.08438000" lon="5.410100000">
        <ele>759.00000</ele>
        <time>2011-01-22T16:23:58Z</time>
      </trkpt>
      <trkpt lat="44.08439000" lon="5.409990000">
        <ele>759.00000</ele>
        <time>2011-01-22T16:24:01Z</time>
      </trkpt>
      <trkpt lat="44.08432000" lon="5.409840000">
        <ele>759.00000</ele>
        <time>2011-01-22T16:24:06Z</time>
      </trkpt>
      <trkpt lat="44.08373000" lon="5.409620000">
        <ele>758.00000</ele>
        <time>2011-01-22T16:24:31Z</time>
      </trkpt>
      <trkpt lat="44.08364000" lon="5.409530000">
        <ele>751.00000</ele>
        <time>2011-01-22T16:24:35Z</time>
      </trkpt>
      <trkpt lat="44.08353000" lon="5.409260000">
        <ele>751.00000</ele>
        <time>2011-01-22T16:24:44Z</time>
      </trkpt>
      <trkpt lat="44.08351000" lon="5.409050000">
        <ele>751.00000</ele>
        <time>2011-01-22T16:24:50Z</time>
      </trkpt>
      <trkpt lat="44.08354000" lon="5.408840000">
        <ele>751.00000</ele>
        <time>2011-01-22T16:24:56Z</time>
      </trkpt>
      <trkpt lat="44.08375000" lon="5.408370000">
        <ele>751.00000</ele>
        <time>2011-01-22T16:25:12Z</time>
      </trkpt>
      <trkpt lat="44.08398000" lon="5.408150000">
        <ele>751.00000</ele>
        <time>2011-01-22T16:25:23Z</time>
      </trkpt>
      <trkpt lat="44.08450000" lon="5.407780000">
        <ele>746.00000</ele>
        <time>2011-01-22T16:25:47Z</time>
      </trkpt>
      <trkpt lat="44.08483000" lon="5.407640000">
        <ele>743.00000</ele>
        <time>2011-01-22T16:26:00Z</time>
      </trkpt>
      <trkpt lat="44.08520000" lon="5.407400000">
        <ele>743.00000</ele>
        <time>2011-01-22T16:26:17Z</time>
      </trkpt>
      <trkpt lat="44.08528000" lon="5.407410000">
        <ele>743.00000</ele>
        <time>2011-01-22T16:26:20Z</time>
      </trkpt>
      <trkpt lat="44.08575000" lon="5.407780000">
        <ele>728.00000</ele>
        <time>2011-01-22T16:26:42Z</time>
      </trkpt>
      <trkpt lat="44.08588000" lon="5.407800000">
        <ele>728.00000</ele>
        <time>2011-01-22T16:26:47Z</time>
      </trkpt>
      <trkpt lat="44.08597000" lon="5.407750000">
        <ele>728.00000</ele>
        <time>2011-01-22T16:26:51Z</time>
      </trkpt>
      <trkpt lat="44.08604000" lon="5.407660000">
        <ele>728.00000</ele>
        <time>2011-01-22T16:26:55Z</time>
      </trkpt>
      <trkpt lat="44.08608000" lon="5.407470000">
        <ele>728.00000</ele>
        <time>2011-01-22T16:27:00Z</time>
      </trkpt>
      <trkpt lat="44.08602000" lon="5.406620000">
        <ele>733.00000</ele>
        <time>2011-01-22T16:27:25Z</time>
      </trkpt>
      <trkpt lat="44.08611000" lon="5.406450000">
        <ele>733.00000</ele>
        <time>2011-01-22T16:27:31Z</time>
      </trkpt>
      <trkpt lat="44.08626000" lon="5.406450000">
        <ele>717.00000</ele>
        <time>2011-01-22T16:27:37Z</time>
      </trkpt>
      <trkpt lat="44.08632000" lon="5.406520000">
        <ele>717.00000</ele>
        <time>2011-01-22T16:27:40Z</time>
      </trkpt>
      <trkpt lat="44.08648000" lon="5.407070000">
        <ele>717.00000</ele>
        <time>2011-01-22T16:27:57Z</time>
      </trkpt>
      <trkpt lat="44.08655000" lon="5.407200000">
        <ele>717.00000</ele>
        <time>2011-01-22T16:28:02Z</time>
      </trkpt>
      <trkpt lat="44.08663000" lon="5.407240000">
        <ele>717.00000</ele>
        <time>2011-01-22T16:28:05Z</time>
      </trkpt>
      <trkpt lat="44.08669000" lon="5.407160000">
        <ele>717.00000</ele>
        <time>2011-01-22T16:28:08Z</time>
      </trkpt>
      <trkpt lat="44.08682000" lon="5.406720000">
        <ele>717.00000</ele>
        <time>2011-01-22T16:28:22Z</time>
      </trkpt>
      <trkpt lat="44.08747000" lon="5.405910000">
        <ele>701.00000</ele>
        <time>2011-01-22T16:28:57Z</time>
      </trkpt>
      <trkpt lat="44.08776000" lon="5.406310000">
        <ele>705.00000</ele>
        <time>2011-01-22T16:29:13Z</time>
      </trkpt>
      <trkpt lat="44.08819000" lon="5.406720000">
        <ele>697.00000</ele>
        <time>2011-01-22T16:29:34Z</time>
      </trkpt>
      <trkpt lat="44.08852000" lon="5.406900000">
        <ele>697.00000</ele>
        <time>2011-01-22T16:29:48Z</time>
      </trkpt>
      <trkpt lat="44.08916000" lon="5.406950000">
        <ele>697.00000</ele>
        <time>2011-01-22T16:30:14Z</time>
      </trkpt>
      <trkpt lat="44.08989000" lon="5.407100000">
        <ele>705.00000</ele>
        <time>2011-01-22T16:30:44Z</time>
      </trkpt>
      <trkpt lat="44.09021000" lon="5.406870000">
        <ele>701.00000</ele>
        <time>2011-01-22T16:30:58Z</time>
      </trkpt>
      <trkpt lat="44.09135000" lon="5.406860000">
        <ele>716.00000</ele>
        <time>2011-01-22T16:31:44Z</time>
      </trkpt>
      <trkpt lat="44.09238000" lon="5.407020000">
        <ele>715.00000</ele>
        <time>2011-01-22T16:32:25Z</time>
      </trkpt>
      <trkpt lat="44.09267000" lon="5.407140000">
        <ele>728.00000</ele>
        <time>2011-01-22T16:32:37Z</time>
      </trkpt>
      <trkpt lat="44.09267000" lon="5.407250000">
        <ele>728.00000</ele>
        <time>2011-01-22T16:32:40Z</time>
      </trkpt>
      <trkpt lat="44.09251000" lon="5.407280000">
        <ele>728.00000</ele>
        <time>2011-01-22T16:32:47Z</time>
      </trkpt>
      <trkpt lat="44.09220000" lon="5.407180000">
        <ele>728.00000</ele>
        <time>2011-01-22T16:33:00Z</time>
      </trkpt>
      <trkpt lat="44.09209000" lon="5.407260000">
        <ele>728.00000</ele>
        <time>2011-01-22T16:33:05Z</time>
      </trkpt>
      <trkpt lat="44.09173000" lon="5.407340000">
        <ele>726.00000</ele>
        <time>2011-01-22T16:33:19Z</time>
      </trkpt>
      <trkpt lat="44.09173000" lon="5.407710000">
        <ele>726.00000</ele>
        <time>2011-01-22T16:33:30Z</time>
      </trkpt>
      <trkpt lat="44.09166000" lon="5.407740000">
        <ele>726.00000</ele>
        <time>2011-01-22T16:33:33Z</time>
      </trkpt>
      <trkpt lat="44.09146000" lon="5.407690000">
        <ele>726.00000</ele>
        <time>2011-01-22T16:33:41Z</time>
      </trkpt>
      <trkpt lat="44.09146000" lon="5.407800000">
        <ele>726.00000</ele>
        <time>2011-01-22T16:33:44Z</time>
      </trkpt>
      <trkpt lat="44.09157000" lon="5.408260000">
        <ele>736.00000</ele>
        <time>2011-01-22T16:33:58Z</time>
      </trkpt>
      <trkpt lat="44.09183000" lon="5.408010000">
        <ele>736.00000</ele>
        <time>2011-01-22T16:34:11Z</time>
      </trkpt>
      <trkpt lat="44.09197000" lon="5.408050000">
        <ele>736.00000</ele>
        <time>2011-01-22T16:34:16Z</time>
      </trkpt>
      <trkpt lat="44.09201000" lon="5.408130000">
        <ele>736.00000</ele>
        <time>2011-01-22T16:34:19Z</time>
      </trkpt>
    </trkseg>
  </trk>
</gpx>

